Puerto Banus, Marbella

>

This is an optional block (switch it off / on) in the settings - file ($SITE['banners'] = false;)

You can display ads, any other important text or photo’s using text / html or PHP code.

You can place one or more at the top and or bottom and it can all be different for content / size .



Meteosat more information blitzortung!


Radar lluvias  rain snow radar


Visita nuestra red de sitios de meteo:

Documentation for the template used

MeteoibericaRed estaciones Meteorologicas

MeteoclimaticRed estaciones Meteorologicas



Sin Advertencias climatologicas .En este momento tenemos Nivel Verde.    No hay Alarmas

Pagina Historial Weather Underground texto

Diario Resumen January 4, 2018 Unidades:  Tanto    impérial   Métrico
« Anterior Dia
Siguiente Dia »
Diario Semana Mensual Anual Personalizada
  Maxima: Minima: Media:
Temperatura: 62.8 °F /  17.1 °C 52.2 °F /  11.2 °C 57.7 °F /  14.3 °C
Punto de rocío: 57.4 °F /  14.1 °C 45.3 °F /  7.4 °C 50.9 °F /  10.5 °C
Humedad: 88 % 62 % 78 %
Velocidad del Viento: 10.4 mph /  16.7 km/h - 3.5 mph /  5.6 km/h
Ráfagas de viento: 10.4 mph /  16.7 km/h - -
Viento:- - SW
Pression baro: 30.4 in /  1028.3 hPa 30.2 in /  1022.6 hPa -
Précipitaciones: 0 in /  0.0 mm    
Historical Graphs
 
 
Datos de tabla para January 4, 2018
Tiempo Temperatura Punto de rocío Pression baro Viento Velocidad del Viento Ráfagas de viento Humedad Las precipitaciones Rate ( Hora )
00:03 60.6 °F /  15.9 °C 49.6 °F /  9.8 °C 30.4 in /  1028.3 hPa North 3 mph /  4.8 km/h 3 mph /  4.8 km/h 67 % 0 in /  0.0 mm
00:04 60.4 °F /  15.8 °C 49.5 °F /  9.7 °C 30.4 in /  1028.3 hPa North 3.5 mph /  5.6 km/h 3.5 mph /  5.6 km/h 67 % 0 in /  0.0 mm
00:09 60.3 °F /  15.7 °C 49.3 °F /  9.6 °C 30.4 in /  1028.3 hPa North 5.8 mph /  9.3 km/h 5.8 mph /  9.3 km/h 67 % 0 in /  0.0 mm
00:11 60.3 °F /  15.7 °C 49.3 °F /  9.6 °C 30.4 in /  1028.3 hPa North 8.1 mph /  13.0 km/h 8.1 mph /  13.0 km/h 67 % 0 in /  0.0 mm
00:16 60.1 °F /  15.6 °C 48.9 °F /  9.4 °C 30.4 in /  1028.3 hPa North 5.8 mph /  9.3 km/h 5.8 mph /  9.3 km/h 67 % 0 in /  0.0 mm
00:20 59.9 °F /  15.5 °C 48.9 °F /  9.4 °C 30.4 in /  1028.0 hPa North 5.8 mph /  9.3 km/h 5.8 mph /  9.3 km/h 67 % 0 in /  0.0 mm
00:21 59.9 °F /  15.5 °C 48.9 °F /  9.4 °C 30.4 in /  1028.0 hPa North 5.8 mph /  9.3 km/h 5.8 mph /  9.3 km/h 67 % 0 in /  0.0 mm
00:26 59.7 °F /  15.4 °C 48.7 °F /  9.3 °C 30.4 in /  1028.0 hPa NNW 3.5 mph /  5.6 km/h 3.5 mph /  5.6 km/h 67 % 0 in /  0.0 mm
00:27 59.7 °F /  15.4 °C 48.7 °F /  9.3 °C 30.4 in /  1028.0 hPa NNW 3.5 mph /  5.6 km/h 3.5 mph /  5.6 km/h 67 % 0 in /  0.0 mm
00:32 59.5 °F /  15.3 °C 48.6 °F /  9.2 °C 30.4 in /  1028.0 hPa NNW 3.5 mph /  5.6 km/h 3.5 mph /  5.6 km/h 67 % 0 in /  0.0 mm
00:33 59.5 °F /  15.3 °C 48.6 °F /  9.2 °C 30.4 in /  1028.0 hPa NNW 3.5 mph /  5.6 km/h 3.5 mph /  5.6 km/h 67 % 0 in /  0.0 mm
00:37 59.5 °F /  15.3 °C 48.6 °F /  9.2 °C 30.4 in /  1028.0 hPa North 4.6 mph /  7.4 km/h 4.6 mph /  7.4 km/h 67 % 0 in /  0.0 mm
00:42 59.4 °F /  15.2 °C 48.4 °F /  9.1 °C 30.4 in /  1027.7 hPa NNW 3.5 mph /  5.6 km/h 3.5 mph /  5.6 km/h 67 % 0 in /  0.0 mm
00:43 59.4 °F /  15.2 °C 48.4 °F /  9.1 °C 30.4 in /  1027.7 hPa NNW 3.5 mph /  5.6 km/h 3.5 mph /  5.6 km/h 67 % 0 in /  0.0 mm
00:45 59.4 °F /  15.2 °C 48 °F /  8.9 °C 30.4 in /  1027.7 hPa North 2 mph /  3.2 km/h 5 mph /  8.0 km/h 66 % 0 in /  0.0 mm
00:49 59.7 °F /  15.4 °C 47.1 °F /  8.4 °C 30.4 in /  1027.7 hPa NNW 4 mph /  6.4 km/h 4 mph /  6.4 km/h 63 % 0 in /  0.0 mm
00:54 59.7 °F /  15.4 °C 46.8 °F /  8.2 °C 30.4 in /  1027.7 hPa NNW 4.6 mph /  7.4 km/h 4.6 mph /  7.4 km/h 62 % 0 in /  0.0 mm
01:06 59 °F /  15.0 °C 46.8 °F /  8.2 °C 30.4 in /  1027.7 hPa North 5 mph /  8.0 km/h 5 mph /  8.0 km/h 64 % 0 in /  0.0 mm
01:07 59 °F /  15.0 °C 46.8 °F /  8.2 °C 30.4 in /  1027.7 hPa North 6 mph /  9.7 km/h 6 mph /  9.7 km/h 64 % 0 in /  0.0 mm
01:13 59 °F /  15.0 °C 46.4 °F /  8.0 °C 30.4 in /  1027.7 hPa NNW 3.5 mph /  5.6 km/h 3.5 mph /  5.6 km/h 63 % 0 in /  0.0 mm
01:15 59.2 °F /  15.1 °C 46 °F /  7.8 °C 30.4 in /  1027.7 hPa NNW 2.3 mph /  3.7 km/h 2.3 mph /  3.7 km/h 62 % 0 in /  0.0 mm
01:19 59.2 °F /  15.1 °C 46.6 °F /  8.1 °C 30.4 in /  1027.7 hPa Calm     63 % 0 in /  0.0 mm
01:24 59.2 °F /  15.1 °C 46.6 °F /  8.1 °C 30.4 in /  1027.7 hPa NNW 1.2 mph /  1.9 km/h 1.2 mph /  1.9 km/h 63 % 0 in /  0.0 mm
01:27 59.2 °F /  15.1 °C 46 °F /  7.8 °C 30.4 in /  1027.7 hPa NNW 1.2 mph /  1.9 km/h 1.2 mph /  1.9 km/h 62 % 0 in /  0.0 mm
01:31 59.2 °F /  15.1 °C 46.9 °F /  8.3 °C 30.4 in /  1027.7 hPa NNW 3.5 mph /  5.6 km/h 3.5 mph /  5.6 km/h 64 % 0 in /  0.0 mm
01:32 59.2 °F /  15.1 °C 47.3 °F /  8.5 °C 30.4 in /  1027.7 hPa NNW 3.5 mph /  5.6 km/h 3.5 mph /  5.6 km/h 65 % 0 in /  0.0 mm
01:34 59 °F /  15.0 °C 47.1 °F /  8.4 °C 30.4 in /  1027.7 hPa NNW 2.3 mph /  3.7 km/h 2.3 mph /  3.7 km/h 65 % 0 in /  0.0 mm
01:38 58.6 °F /  14.8 °C 46.6 °F /  8.1 °C 30.3 in /  1027.3 hPa NNW 3.5 mph /  5.6 km/h 3.5 mph /  5.6 km/h 64 % 0 in /  0.0 mm
01:39 58.6 °F /  14.8 °C 46.6 °F /  8.1 °C 30.3 in /  1027.3 hPa NNW 3.5 mph /  5.6 km/h 3.5 mph /  5.6 km/h 64 % 0 in /  0.0 mm
01:41 58.6 °F /  14.8 °C 46.6 °F /  8.1 °C 30.3 in /  1027.3 hPa NNW 3.5 mph /  5.6 km/h 3.5 mph /  5.6 km/h 64 % 0 in /  0.0 mm
01:48 58.5 °F /  14.7 °C 46.2 °F /  7.9 °C 30.3 in /  1027.3 hPa NNW 3.5 mph /  5.6 km/h 3.5 mph /  5.6 km/h 64 % 0 in /  0.0 mm
01:49 58.5 °F /  14.7 °C 46.8 °F /  8.2 °C 30.3 in /  1027.3 hPa NNW 3.5 mph /  5.6 km/h 3.5 mph /  5.6 km/h 65 % 0 in /  0.0 mm
01:54 58.5 °F /  14.7 °C 47.5 °F /  8.6 °C 30.3 in /  1027.3 hPa NNW 2.3 mph /  3.7 km/h 2.3 mph /  3.7 km/h 67 % 0 in /  0.0 mm
01:55 58.5 °F /  14.7 °C 47.8 °F /  8.8 °C 30.3 in /  1027.3 hPa Calm     68 % 0 in /  0.0 mm
02:00 58.5 °F /  14.7 °C 47.8 °F /  8.8 °C 30.3 in /  1027.3 hPa NNW 1 mph /  1.6 km/h 3 mph /  4.8 km/h 68 % 0 in /  0.0 mm
02:01 58.3 °F /  14.6 °C 47.7 °F /  8.7 °C 30.3 in /  1027.3 hPa NNW 3.5 mph /  5.6 km/h 3.5 mph /  5.6 km/h 68 % 0 in /  0.0 mm
02:06 57.9 °F /  14.4 °C 47.8 °F /  8.8 °C 30.3 in /  1027.0 hPa NNW 4 mph /  6.4 km/h 4 mph /  6.4 km/h 69 % 0 in /  0.0 mm
02:08 57.7 °F /  14.3 °C 47.3 °F /  8.5 °C 30.3 in /  1027.3 hPa NNW 3.5 mph /  5.6 km/h 3.5 mph /  5.6 km/h 68 % 0 in /  0.0 mm
02:13 57.6 °F /  14.2 °C 46.8 °F /  8.2 °C 30.3 in /  1027.0 hPa NNW 3.5 mph /  5.6 km/h 3.5 mph /  5.6 km/h 67 % 0 in /  0.0 mm
02:16 57.4 °F /  14.1 °C 46.6 °F /  8.1 °C 30.3 in /  1027.0 hPa NNW 4.6 mph /  7.4 km/h 4.6 mph /  7.4 km/h 67 % 0 in /  0.0 mm
02:19 57 °F /  13.9 °C 46.2 °F /  7.9 °C 30.3 in /  1027.0 hPa North 4.6 mph /  7.4 km/h 4.6 mph /  7.4 km/h 67 % 0 in /  0.0 mm
02:20 56.8 °F /  13.8 °C 46 °F /  7.8 °C 30.3 in /  1027.0 hPa North 5.8 mph /  9.3 km/h 5.8 mph /  9.3 km/h 67 % 0 in /  0.0 mm
02:25 56.7 °F /  13.7 °C 45.9 °F /  7.7 °C 30.3 in /  1027.0 hPa North 4.6 mph /  7.4 km/h 4.6 mph /  7.4 km/h 67 % 0 in /  0.0 mm
02:26 56.7 °F /  13.7 °C 45.9 °F /  7.7 °C 30.3 in /  1027.0 hPa North 4.6 mph /  7.4 km/h 4.6 mph /  7.4 km/h 67 % 0 in /  0.0 mm
02:31 56.7 °F /  13.7 °C 45.9 °F /  7.7 °C 30.3 in /  1027.0 hPa North 5 mph /  8.0 km/h 5 mph /  8.0 km/h 67 % 0 in /  0.0 mm
02:33 56.5 °F /  13.6 °C 45.7 °F /  7.6 °C 30.3 in /  1027.0 hPa North 5 mph /  8.0 km/h 5 mph /  8.0 km/h 67 % 0 in /  0.0 mm
02:36 55.9 °F /  13.3 °C 45.5 °F /  7.5 °C 30.3 in /  1027.0 hPa North 4.6 mph /  7.4 km/h 4.6 mph /  7.4 km/h 68 % 0 in /  0.0 mm
02:38 55.8 °F /  13.2 °C 45.3 °F /  7.4 °C 30.3 in /  1027.0 hPa North 5 mph /  8.0 km/h 5 mph /  8.0 km/h 68 % 0 in /  0.0 mm
02:41 55.6 °F /  13.1 °C 45.5 °F /  7.5 °C 30.3 in /  1027.0 hPa North 4.6 mph /  7.4 km/h 4.6 mph /  7.4 km/h 69 % 0 in /  0.0 mm
02:46 55.6 °F /  13.1 °C 46 °F /  7.8 °C 30.3 in /  1027.0 hPa North 5.8 mph /  9.3 km/h 5.8 mph /  9.3 km/h 70 % 0 in /  0.0 mm
02:47 55.6 °F /  13.1 °C 46 °F /  7.8 °C 30.3 in /  1027.0 hPa North 6 mph /  9.7 km/h 6 mph /  9.7 km/h 70 % 0 in /  0.0 mm
02:52 55.6 °F /  13.1 °C 45.9 °F /  7.7 °C 30.3 in /  1027.0 hPa NNW 6.9 mph /  11.1 km/h 6.9 mph /  11.1 km/h 70 % 0 in /  0.0 mm
02:58 55.6 °F /  13.1 °C 46.2 °F /  7.9 °C 30.3 in /  1026.6 hPa NNW 5 mph /  8.0 km/h 5 mph /  8.0 km/h 71 % 0 in /  0.0 mm
03:02 55.8 °F /  13.2 °C 46.6 °F /  8.1 °C 30.3 in /  1026.6 hPa NNW 5.8 mph /  9.3 km/h 5.8 mph /  9.3 km/h 71 % 0 in /  0.0 mm
03:04 55.9 °F /  13.3 °C 46.6 °F /  8.1 °C 30.3 in /  1026.6 hPa NNW 3.5 mph /  5.6 km/h 3.5 mph /  5.6 km/h 71 % 0 in /  0.0 mm
03:09 55.9 °F /  13.3 °C 46.8 °F /  8.2 °C 30.3 in /  1027.0 hPa Calm     71 % 0 in /  0.0 mm
03:11 55.9 °F /  13.3 °C 46.2 °F /  7.9 °C 30.3 in /  1027.0 hPa NNW 2.3 mph /  3.7 km/h 2.3 mph /  3.7 km/h 70 % 0 in /  0.0 mm
03:16 55.9 °F /  13.3 °C 46.2 °F /  7.9 °C 30.3 in /  1027.0 hPa North 5 mph /  8.0 km/h 5 mph /  8.0 km/h 70 % 0 in /  0.0 mm
03:19 55.6 °F /  13.1 °C 45.9 °F /  7.7 °C 30.3 in /  1027.0 hPa North 2.3 mph /  3.7 km/h   70 % 0 in /  0.0 mm
03:24 55 °F /  12.8 °C 45.3 °F /  7.4 °C 30.3 in /  1027.0 hPa North 5.8 mph /  9.3 km/h 5.8 mph /  9.3 km/h 70 % 0 in /  0.0 mm
03:25 55 °F /  12.8 °C 45.3 °F /  7.4 °C 30.3 in /  1027.0 hPa North 5 mph /  8.0 km/h 6 mph /  9.7 km/h 70 % 0 in /  0.0 mm
03:29 54.3 °F /  12.4 °C 45.7 °F /  7.6 °C 30.3 in /  1027.0 hPa North 4 mph /  6.4 km/h 4.1 mph /  6.6 km/h 72 % 0 in /  0.0 mm
03:35 54.3 °F /  12.4 °C 45.9 °F /  7.7 °C 30.3 in /  1027.0 hPa North 4.6 mph /  7.4 km/h 4.6 mph /  7.4 km/h 73 % 0 in /  0.0 mm
03:40 54.9 °F /  12.7 °C 46.8 °F /  8.2 °C 30.3 in /  1027.0 hPa NNW 5.8 mph /  9.3 km/h 5.8 mph /  9.3 km/h 74 % 0 in /  0.0 mm
03:45 55 °F /  12.8 °C 46.6 °F /  8.1 °C 30.3 in /  1027.0 hPa NNW 2.3 mph /  3.7 km/h 2.3 mph /  3.7 km/h 73 % 0 in /  0.0 mm
03:46 55 °F /  12.8 °C 46.6 °F /  8.1 °C 30.3 in /  1027.0 hPa NNW 3.5 mph /  5.6 km/h 3.5 mph /  5.6 km/h 73 % 0 in /  0.0 mm
03:51 55 °F /  12.8 °C 46.6 °F /  8.1 °C 30.3 in /  1027.0 hPa NNW 4 mph /  6.4 km/h 4 mph /  6.4 km/h 73 % 0 in /  0.0 mm
03:53 54.9 °F /  12.7 °C 46.4 °F /  8.0 °C 30.3 in /  1027.0 hPa North 5 mph /  8.0 km/h 5 mph /  8.0 km/h 73 % 0 in /  0.0 mm
03:56 55 °F /  12.8 °C 46.6 °F /  8.1 °C 30.3 in /  1027.0 hPa NNW 5.8 mph /  9.3 km/h 5.8 mph /  9.3 km/h 73 % 0 in /  0.0 mm
03:59 55 °F /  12.8 °C 46.6 °F /  8.1 °C 30.3 in /  1027.0 hPa NNW 3.5 mph /  5.6 km/h 3.5 mph /  5.6 km/h 73 % 0 in /  0.0 mm
04:04 54.9 °F /  12.7 °C 45.9 °F /  7.7 °C 30.3 in /  1027.0 hPa NNW 3.5 mph /  5.6 km/h 3.5 mph /  5.6 km/h 72 % 0 in /  0.0 mm
04:09 54.7 °F /  12.6 °C 46.6 °F /  8.1 °C 30.3 in /  1027.0 hPa NNW 3.5 mph /  5.6 km/h 3.5 mph /  5.6 km/h 74 % 0 in /  0.0 mm
04:11 54.9 °F /  12.7 °C 46.8 °F /  8.2 °C 30.3 in /  1027.0 hPa NNW 2.3 mph /  3.7 km/h 2.3 mph /  3.7 km/h 74 % 0 in /  0.0 mm
04:16 55 °F /  12.8 °C 46.9 °F /  8.3 °C 30.3 in /  1027.0 hPa NNW 3.5 mph /  5.6 km/h 3.5 mph /  5.6 km/h 74 % 0 in /  0.0 mm
04:18 55.2 °F /  12.9 °C 47.5 °F /  8.6 °C 30.3 in /  1027.0 hPa NNW 3.5 mph /  5.6 km/h 3.5 mph /  5.6 km/h 75 % 0 in /  0.0 mm
04:21 55.2 °F /  12.9 °C 47.1 °F /  8.4 °C 30.3 in /  1027.0 hPa NNW 2.3 mph /  3.7 km/h 2.3 mph /  3.7 km/h 74 % 0 in /  0.0 mm
04:25 55.6 °F /  13.1 °C 47.3 °F /  8.5 °C 30.3 in /  1027.0 hPa NNW 2.3 mph /  3.7 km/h 2.3 mph /  3.7 km/h 74 % 0 in /  0.0 mm
04:30 55.8 °F /  13.2 °C 47.5 °F /  8.6 °C 30.3 in /  1027.0 hPa NNW 2.3 mph /  3.7 km/h 2.3 mph /  3.7 km/h 74 % 0 in /  0.0 mm
04:31 55.8 °F /  13.2 °C 47.5 °F /  8.6 °C 30.3 in /  1027.0 hPa Calm     74 % 0 in /  0.0 mm
04:36 55.6 °F /  13.1 °C 46.9 °F /  8.3 °C 30.3 in /  1027.0 hPa NNW 1 mph /  1.6 km/h 1 mph /  1.6 km/h 73 % 0 in /  0.0 mm
04:37 55.4 °F /  13.0 °C 46.9 °F /  8.3 °C 30.3 in /  1027.0 hPa NNW 2 mph /  3.2 km/h 2 mph /  3.2 km/h 73 % 0 in /  0.0 mm
04:42 54.9 °F /  12.7 °C 46.2 °F /  7.9 °C 30.3 in /  1027.0 hPa NNW 4.6 mph /  7.4 km/h 4.6 mph /  7.4 km/h 73 % 0 in /  0.0 mm
04:43 54.7 °F /  12.6 °C 46.2 °F /  7.9 °C 30.3 in /  1027.0 hPa NNW 3.5 mph /  5.6 km/h 3.7 mph /  6.0 km/h 73 % 0 in /  0.0 mm
04:45 54.7 °F /  12.6 °C 46 °F /  7.8 °C 30.3 in /  1027.0 hPa North 3.5 mph /  5.6 km/h 3.5 mph /  5.6 km/h 73 % 0 in /  0.0 mm
04:49 54.3 °F /  12.4 °C 46.2 °F /  7.9 °C 30.3 in /  1027.0 hPa North 3.5 mph /  5.6 km/h 3.5 mph /  5.6 km/h 74 % 0 in /  0.0 mm
04:51 54.3 °F /  12.4 °C 46.2 °F /  7.9 °C 30.3 in /  1027.0 hPa North 3 mph /  4.8 km/h 3 mph /  4.8 km/h 74 % 0 in /  0.0 mm
04:56 54.3 °F /  12.4 °C 46.6 °F /  8.1 °C 30.3 in /  1027.0 hPa North 3.5 mph /  5.6 km/h 3.5 mph /  5.6 km/h 75 % 0 in /  0.0 mm
05:00 54.3 °F /  12.4 °C 46.6 °F /  8.1 °C 30.3 in /  1027.0 hPa Calm     75 % 0 in /  0.0 mm
05:01 54.3 °F /  12.4 °C 46.6 °F /  8.1 °C 30.3 in /  1026.6 hPa North 2.3 mph /  3.7 km/h 2.3 mph /  3.7 km/h 75 % 0 in /  0.0 mm
05:07 54.7 °F /  12.6 °C 46.9 °F /  8.3 °C 30.3 in /  1026.6 hPa North 3.5 mph /  5.6 km/h 3.5 mph /  5.6 km/h 75 % 0 in /  0.0 mm
05:08 54.7 °F /  12.6 °C 46.9 °F /  8.3 °C 30.3 in /  1026.6 hPa NNW 3.5 mph /  5.6 km/h 3.5 mph /  5.6 km/h 75 % 0 in /  0.0 mm
05:12 54.7 °F /  12.6 °C 46.9 °F /  8.3 °C 30.3 in /  1027.0 hPa NNW 1.2 mph /  1.9 km/h   75 % 0 in /  0.0 mm
05:13 54.7 °F /  12.6 °C 46.9 °F /  8.3 °C 30.3 in /  1027.0 hPa Calm   0.1 mph /  0.2 km/h 75 % 0 in /  0.0 mm
05:14 54.7 °F /  12.6 °C 46.9 °F /  8.3 °C 30.3 in /  1027.0 hPa Calm   0.1 mph /  0.2 km/h 75 % 0 in /  0.0 mm
05:15 54.7 °F /  12.6 °C 46.9 °F /  8.3 °C 30.3 in /  1027.0 hPa Calm     75 % 0 in /  0.0 mm
05:16 54.9 °F /  12.7 °C 46.9 °F /  8.3 °C 30.3 in /  1027.0 hPa Calm   0.3 mph /  0.5 km/h 75 % 0 in /  0.0 mm
05:17 54.9 °F /  12.7 °C 46.9 °F /  8.3 °C 30.3 in /  1027.0 hPa Calm   0.3 mph /  0.5 km/h 75 % 0 in /  0.0 mm
05:18 54.9 °F /  12.7 °C 46.9 °F /  8.3 °C 30.3 in /  1027.0 hPa Calm     75 % 0 in /  0.0 mm
05:19 54.9 °F /  12.7 °C 46.9 °F /  8.3 °C 30.3 in /  1026.6 hPa Calm     75 % 0 in /  0.0 mm
05:24 55 °F /  12.8 °C 47.7 °F /  8.7 °C 30.3 in /  1026.6 hPa NNW 3.5 mph /  5.6 km/h 3.5 mph /  5.6 km/h 76 % 0 in /  0.0 mm
05:29 55.4 °F /  13.0 °C 48 °F /  8.9 °C 30.3 in /  1026.6 hPa NNW 3.5 mph /  5.6 km/h 3.5 mph /  5.6 km/h 76 % 0 in /  0.0 mm
05:30 55.4 °F /  13.0 °C 48 °F /  8.9 °C 30.3 in /  1026.6 hPa NNW 4.6 mph /  7.4 km/h 4.6 mph /  7.4 km/h 76 % 0 in /  0.0 mm
05:35 54.7 °F /  12.6 °C 46.8 °F /  8.2 °C 30.3 in /  1026.6 hPa North 5.8 mph /  9.3 km/h 5.8 mph /  9.3 km/h 75 % 0 in /  0.0 mm
05:38 54 °F /  12.2 °C 46.2 °F /  7.9 °C 30.3 in /  1026.6 hPa North 5 mph /  8.0 km/h 5 mph /  8.0 km/h 75 % 0 in /  0.0 mm
05:39 53.8 °F /  12.1 °C 46 °F /  7.8 °C 30.3 in /  1026.6 hPa North 5 mph /  8.0 km/h 5 mph /  8.0 km/h 75 % 0 in /  0.0 mm
05:43 53.8 °F /  12.1 °C 46.2 °F /  7.9 °C 30.3 in /  1026.6 hPa NNW 2.3 mph /  3.7 km/h 2.3 mph /  3.7 km/h 76 % 0 in /  0.0 mm
05:44 53.8 °F /  12.1 °C 46.2 °F /  7.9 °C 30.3 in /  1026.6 hPa NNW 3 mph /  4.8 km/h 3 mph /  4.8 km/h 76 % 0 in /  0.0 mm
05:46 53.8 °F /  12.1 °C 46.8 °F /  8.2 °C 30.3 in /  1026.6 hPa North 3.5 mph /  5.6 km/h 3.5 mph /  5.6 km/h 77 % 0 in /  0.0 mm
05:48 53.8 °F /  12.1 °C 46.8 °F /  8.2 °C 30.3 in /  1026.6 hPa North 3.5 mph /  5.6 km/h 3.5 mph /  5.6 km/h 77 % 0 in /  0.0 mm
05:51 53.8 °F /  12.1 °C 46.8 °F /  8.2 °C 30.3 in /  1026.6 hPa NNW 4 mph /  6.4 km/h 4 mph /  6.4 km/h 77 % 0 in /  0.0 mm
05:52 53.8 °F /  12.1 °C 46.8 °F /  8.2 °C 30.3 in /  1026.6 hPa NNW 4.6 mph /  7.4 km/h 4.6 mph /  7.4 km/h 77 % 0 in /  0.0 mm
05:56 53.8 °F /  12.1 °C 46.8 °F /  8.2 °C 30.3 in /  1026.6 hPa North 4.6 mph /  7.4 km/h 4.6 mph /  7.4 km/h 77 % 0 in /  0.0 mm
05:57 53.8 °F /  12.1 °C 46.8 °F /  8.2 °C 30.3 in /  1026.6 hPa North 3.5 mph /  5.6 km/h 3.5 mph /  5.6 km/h 77 % 0 in /  0.0 mm
06:02 54.1 °F /  12.3 °C 47.5 °F /  8.6 °C 30.3 in /  1026.6 hPa Calm     78 % 0 in /  0.0 mm
06:07 54.5 °F /  12.5 °C 47.5 °F /  8.6 °C 30.3 in /  1026.6 hPa North 3.5 mph /  5.6 km/h 3.5 mph /  5.6 km/h 77 % 0 in /  0.0 mm
06:12 54.7 °F /  12.6 °C 47.5 °F /  8.6 °C 30.3 in /  1026.6 hPa North 3.5 mph /  5.6 km/h 3.5 mph /  5.6 km/h 77 % 0 in /  0.0 mm
06:17 54.7 °F /  12.6 °C 47.1 °F /  8.4 °C 30.3 in /  1026.6 hPa NNW 4 mph /  6.4 km/h 4 mph /  6.4 km/h 76 % 0 in /  0.0 mm
06:22 53.2 °F /  11.8 °C 45.9 °F /  7.7 °C 30.3 in /  1026.6 hPa North 5.8 mph /  9.3 km/h 5.8 mph /  9.3 km/h 76 % 0 in /  0.0 mm
06:25 52.7 °F /  11.5 °C 45.7 °F /  7.6 °C 30.3 in /  1026.6 hPa North 5 mph /  8.0 km/h 5 mph /  8.0 km/h 77 % 0 in /  0.0 mm
06:29 52.2 °F /  11.2 °C 45.9 °F /  7.7 °C 30.3 in /  1026.6 hPa North 4.6 mph /  7.4 km/h 4.6 mph /  7.4 km/h 79 % 0 in /  0.0 mm
06:30 52.2 °F /  11.2 °C 45.9 °F /  7.7 °C 30.3 in /  1026.6 hPa North 4.6 mph /  7.4 km/h 4.6 mph /  7.4 km/h 79 % 0 in /  0.0 mm
06:32 52.3 °F /  11.3 °C 46 °F /  7.8 °C 30.3 in /  1026.6 hPa North 3.5 mph /  5.6 km/h 3.5 mph /  5.6 km/h 79 % 0 in /  0.0 mm
06:33 52.3 °F /  11.3 °C 46.2 °F /  7.9 °C 30.3 in /  1026.6 hPa North 4.6 mph /  7.4 km/h 4.6 mph /  7.4 km/h 80 % 0 in /  0.0 mm
06:37 52.3 °F /  11.3 °C 46.2 °F /  7.9 °C 30.3 in /  1026.6 hPa NNW 3.5 mph /  5.6 km/h 3.5 mph /  5.6 km/h 80 % 0 in /  0.0 mm
06:41 52.5 °F /  11.4 °C 46.9 °F /  8.3 °C 30.3 in /  1026.6 hPa NNW 4.6 mph /  7.4 km/h 4.6 mph /  7.4 km/h 81 % 0 in /  0.0 mm
06:42 52.7 °F /  11.5 °C 46.9 °F /  8.3 °C 30.3 in /  1026.6 hPa NNW 3.5 mph /  5.6 km/h 3.5 mph /  5.6 km/h 81 % 0 in /  0.0 mm
06:47 53.1 °F /  11.7 °C 47.5 °F /  8.6 °C 30.3 in /  1026.6 hPa NNW 3.5 mph /  5.6 km/h 3.5 mph /  5.6 km/h 81 % 0 in /  0.0 mm
06:51 53.6 °F /  12.0 °C 47.8 °F /  8.8 °C 30.3 in /  1026.6 hPa NNW 3.5 mph /  5.6 km/h 3.5 mph /  5.6 km/h 81 % 0 in /  0.0 mm
06:55 54 °F /  12.2 °C 47.5 °F /  8.6 °C 30.3 in /  1026.6 hPa NNW 5 mph /  8.0 km/h 5 mph /  8.0 km/h 79 % 0 in /  0.0 mm
06:59 54 °F /  12.2 °C 47.5 °F /  8.6 °C 30.3 in /  1026.6 hPa NNW 3.5 mph /  5.6 km/h 3.5 mph /  5.6 km/h 79 % 0 in /  0.0 mm
07:01 54 °F /  12.2 °C 47.5 °F /  8.6 °C 30.3 in /  1026.6 hPa NNW 3.5 mph /  5.6 km/h 3.5 mph /  5.6 km/h 79 % 0 in /  0.0 mm
07:03 54 °F /  12.2 °C 47.5 °F /  8.6 °C 30.3 in /  1026.6 hPa NNW 2.3 mph /  3.7 km/h 2.3 mph /  3.7 km/h 79 % 0 in /  0.0 mm
07:08 54 °F /  12.2 °C 47.1 °F /  8.4 °C 30.3 in /  1026.6 hPa NNW 3.5 mph /  5.6 km/h 3.5 mph /  5.6 km/h 78 % 0 in /  0.0 mm
07:13 53.6 °F /  12.0 °C 46.9 °F /  8.3 °C 30.3 in /  1026.6 hPa North 3.5 mph /  5.6 km/h 3.5 mph /  5.6 km/h 78 % 0 in /  0.0 mm
07:14 53.2 °F /  11.8 °C 46.6 °F /  8.1 °C 30.3 in /  1026.6 hPa North 3.5 mph /  5.6 km/h 3.5 mph /  5.6 km/h 78 % 0 in /  0.0 mm
07:19 53.1 °F /  11.7 °C 46.8 °F /  8.2 °C 30.3 in /  1026.6 hPa Calm     79 % 0 in /  0.0 mm
07:20 53.1 °F /  11.7 °C 46.8 °F /  8.2 °C 30.3 in /  1026.6 hPa Calm     79 % 0 in /  0.0 mm
07:25 52.9 °F /  11.6 °C 46.6 °F /  8.1 °C 30.3 in /  1026.6 hPa North 1.2 mph /  1.9 km/h   79 % 0 in /  0.0 mm
07:27 52.9 °F /  11.6 °C 46.6 °F /  8.1 °C 30.3 in /  1026.6 hPa North 2.3 mph /  3.7 km/h 2.3 mph /  3.7 km/h 79 % 0 in /  0.0 mm
07:28 52.9 °F /  11.6 °C 46.6 °F /  8.1 °C 30.3 in /  1026.6 hPa North 2.3 mph /  3.7 km/h 2.3 mph /  3.7 km/h 79 % 0 in /  0.0 mm
07:31 53.1 °F /  11.7 °C 46.8 °F /  8.2 °C 30.3 in /  1026.6 hPa North 3.5 mph /  5.6 km/h 3.5 mph /  5.6 km/h 79 % 0 in /  0.0 mm
07:33 53.1 °F /  11.7 °C 46.8 °F /  8.2 °C 30.3 in /  1026.6 hPa North 3.5 mph /  5.6 km/h 3.5 mph /  5.6 km/h 79 % 0 in /  0.0 mm
07:34 53.1 °F /  11.7 °C 47.1 °F /  8.4 °C 30.3 in /  1026.6 hPa North 3.5 mph /  5.6 km/h 3.5 mph /  5.6 km/h 80 % 0 in /  0.0 mm
07:39 53.4 °F /  11.9 °C 47.5 °F /  8.6 °C 30.3 in /  1026.6 hPa North 1.2 mph /  1.9 km/h 1.2 mph /  1.9 km/h 80 % 0 in /  0.0 mm
07:40 53.4 °F /  11.9 °C 47.5 °F /  8.6 °C 30.3 in /  1026.6 hPa North 2 mph /  3.2 km/h 2 mph /  3.2 km/h 80 % 0 in /  0.0 mm
07:41 53.4 °F /  11.9 °C 46.9 °F /  8.3 °C 30.3 in /  1026.6 hPa North 2 mph /  3.2 km/h 2.1 mph /  3.4 km/h 79 % 0 in /  0.0 mm
07:45 53.2 °F /  11.8 °C 47.3 °F /  8.5 °C 30.3 in /  1026.6 hPa North 3.5 mph /  5.6 km/h 3.5 mph /  5.6 km/h 80 % 0 in /  0.0 mm
07:46 53.2 °F /  11.8 °C 47.3 °F /  8.5 °C 30.3 in /  1026.6 hPa North 3 mph /  4.8 km/h 3 mph /  4.8 km/h 80 % 0 in /  0.0 mm
07:47 53.2 °F /  11.8 °C 47.1 °F /  8.4 °C 30.3 in /  1026.6 hPa North 3.5 mph /  5.6 km/h 3.5 mph /  5.6 km/h 80 % 0 in /  0.0 mm
07:52 53.1 °F /  11.7 °C 46.9 °F /  8.3 °C 30.3 in /  1027.0 hPa North 5 mph /  8.0 km/h 5 mph /  8.0 km/h 80 % 0 in /  0.0 mm
07:53 52.9 °F /  11.6 °C 46.9 °F /  8.3 °C 30.3 in /  1027.0 hPa North 4.6 mph /  7.4 km/h 4.6 mph /  7.4 km/h 80 % 0 in /  0.0 mm
07:54 52.9 °F /  11.6 °C 46.8 °F /  8.2 °C 30.3 in /  1027.0 hPa North 5 mph /  8.0 km/h 5 mph /  8.0 km/h 80 % 0 in /  0.0 mm
07:58 52.7 °F /  11.5 °C 46.9 °F /  8.3 °C 30.3 in /  1027.0 hPa North 4 mph /  6.4 km/h 4 mph /  6.4 km/h 81 % 0 in /  0.0 mm
08:00 52.7 °F /  11.5 °C 46.9 °F /  8.3 °C 30.3 in /  1027.0 hPa North 5 mph /  8.0 km/h 5 mph /  8.0 km/h 81 % 0 in /  0.0 mm
08:05 52.5 °F /  11.4 °C 46.9 °F /  8.3 °C 30.3 in /  1027.0 hPa North 3.5 mph /  5.6 km/h 3.5 mph /  5.6 km/h 81 % 0 in /  0.0 mm
08:07 52.5 °F /  11.4 °C 46.9 °F /  8.3 °C 30.3 in /  1027.0 hPa North 1.2 mph /  1.9 km/h   81 % 0 in /  0.0 mm
08:13 53.1 °F /  11.7 °C 47.7 °F /  8.7 °C 30.3 in /  1027.0 hPa North 4 mph /  6.4 km/h 4 mph /  6.4 km/h 82 % 0 in /  0.0 mm
08:15 53.1 °F /  11.7 °C 47.7 °F /  8.7 °C 30.3 in /  1027.0 hPa North 3.5 mph /  5.6 km/h 3.5 mph /  5.6 km/h 82 % 0 in /  0.0 mm
08:17 53.1 °F /  11.7 °C 47.3 °F /  8.5 °C 30.3 in /  1027.0 hPa North 3.5 mph /  5.6 km/h 3.5 mph /  5.6 km/h 81 % 0 in /  0.0 mm
08:19 53.1 °F /  11.7 °C 47.7 °F /  8.7 °C 30.3 in /  1027.0 hPa North 3.5 mph /  5.6 km/h 3.5 mph /  5.6 km/h 82 % 0 in /  0.0 mm
08:21 53.1 °F /  11.7 °C 47.5 °F /  8.6 °C 30.3 in /  1027.0 hPa North 2.3 mph /  3.7 km/h 2.3 mph /  3.7 km/h 81 % 0 in /  0.0 mm
08:26 53.2 °F /  11.8 °C 47.5 °F /  8.6 °C 30.3 in /  1027.0 hPa North 2.3 mph /  3.7 km/h 2.3 mph /  3.7 km/h 81 % 0 in /  0.0 mm
08:31 53.2 °F /  11.8 °C 47.5 °F /  8.6 °C 30.3 in /  1027.0 hPa North 3.5 mph /  5.6 km/h 3.5 mph /  5.6 km/h 81 % 0 in /  0.0 mm
08:32 53.2 °F /  11.8 °C 47.7 °F /  8.7 °C 30.3 in /  1027.0 hPa North 2.3 mph /  3.7 km/h 2.3 mph /  3.7 km/h 81 % 0 in /  0.0 mm
08:37 53.2 °F /  11.8 °C 47.7 °F /  8.7 °C 30.3 in /  1027.0 hPa North 2.3 mph /  3.7 km/h 2.3 mph /  3.7 km/h 81 % 0 in /  0.0 mm
08:39 53.2 °F /  11.8 °C 47.7 °F /  8.7 °C 30.3 in /  1027.0 hPa North 2.3 mph /  3.7 km/h 2.3 mph /  3.7 km/h 81 % 0 in /  0.0 mm
08:42 53.2 °F /  11.8 °C 47.3 °F /  8.5 °C 30.3 in /  1027.0 hPa North 2 mph /  3.2 km/h 2 mph /  3.2 km/h 80 % 0 in /  0.0 mm
08:44 53.2 °F /  11.8 °C 47.1 °F /  8.4 °C 30.3 in /  1027.0 hPa North 2.3 mph /  3.7 km/h 2.3 mph /  3.7 km/h 80 % 0 in /  0.0 mm
08:46 53.2 °F /  11.8 °C 47.1 °F /  8.4 °C 30.3 in /  1027.0 hPa North 2.3 mph /  3.7 km/h 2.3 mph /  3.7 km/h 80 % 0 in /  0.0 mm
08:49 53.2 °F /  11.8 °C 47.1 °F /  8.4 °C 30.3 in /  1027.0 hPa North 2.3 mph /  3.7 km/h 2.3 mph /  3.7 km/h 80 % 0 in /  0.0 mm
08:53 53.2 °F /  11.8 °C 47.1 °F /  8.4 °C 30.3 in /  1027.0 hPa Calm     80 % 0 in /  0.0 mm
08:56 53.2 °F /  11.8 °C 47.3 °F /  8.5 °C 30.3 in /  1027.0 hPa Calm     80 % 0 in /  0.0 mm
09:01 53.4 °F /  11.9 °C 47.5 °F /  8.6 °C 30.3 in /  1027.0 hPa North 2.3 mph /  3.7 km/h 2.3 mph /  3.7 km/h 80 % 0 in /  0.0 mm
09:02 53.4 °F /  11.9 °C 47.5 °F /  8.6 °C 30.3 in /  1027.0 hPa North 2.3 mph /  3.7 km/h 2.3 mph /  3.7 km/h 80 % 0 in /  0.0 mm
09:04 53.6 °F /  12.0 °C 47.7 °F /  8.7 °C 30.3 in /  1027.0 hPa North 2.3 mph /  3.7 km/h 2.3 mph /  3.7 km/h 80 % 0 in /  0.0 mm
09:06 53.8 °F /  12.1 °C 47.8 °F /  8.8 °C 30.3 in /  1027.0 hPa North 1.2 mph /  1.9 km/h 1.2 mph /  1.9 km/h 80 % 0 in /  0.0 mm
09:08 54 °F /  12.2 °C 47.8 °F /  8.8 °C 30.3 in /  1027.0 hPa North 1.2 mph /  1.9 km/h   80 % 0 in /  0.0 mm
09:13 54.3 °F /  12.4 °C 48.4 °F /  9.1 °C 30.3 in /  1027.0 hPa North 2.3 mph /  3.7 km/h 2.3 mph /  3.7 km/h 80 % 0 in /  0.0 mm
09:18 54.7 °F /  12.6 °C 48.6 °F /  9.2 °C 30.3 in /  1027.0 hPa North 1.2 mph /  1.9 km/h 1.2 mph /  1.9 km/h 80 % 0 in /  0.0 mm
09:19 54.7 °F /  12.6 °C 48.6 °F /  9.2 °C 30.3 in /  1027.0 hPa North 1.2 mph /  1.9 km/h 1.2 mph /  1.9 km/h 80 % 0 in /  0.0 mm
09:23 55 °F /  12.8 °C 48.9 °F /  9.4 °C 30.3 in /  1027.0 hPa North 2.3 mph /  3.7 km/h 2.3 mph /  3.7 km/h 80 % 0 in /  0.0 mm
09:24 55 °F /  12.8 °C 48.9 °F /  9.4 °C 30.3 in /  1027.0 hPa North 1.2 mph /  1.9 km/h 1.2 mph /  1.9 km/h 80 % 0 in /  0.0 mm
09:26 55 °F /  12.8 °C 48.7 °F /  9.3 °C 30.3 in /  1027.0 hPa Calm     79 % 0 in /  0.0 mm
09:27 55 °F /  12.8 °C 48.7 °F /  9.3 °C 30.3 in /  1027.0 hPa Calm     79 % 0 in /  0.0 mm
09:30 55.2 °F /  12.9 °C 48.7 °F /  9.3 °C 30.3 in /  1027.0 hPa Calm     79 % 0 in /  0.0 mm
09:33 55.2 °F /  12.9 °C 48.9 °F /  9.4 °C 30.3 in /  1027.0 hPa North 2.3 mph /  3.7 km/h 2.3 mph /  3.7 km/h 79 % 0 in /  0.0 mm
09:36 55.6 °F /  13.1 °C 49.3 °F /  9.6 °C 30.3 in /  1027.0 hPa North 2.3 mph /  3.7 km/h 2.3 mph /  3.7 km/h 79 % 0 in /  0.0 mm
09:38 55.8 °F /  13.2 °C 48.9 °F /  9.4 °C 30.3 in /  1027.0 hPa Calm     78 % 0 in /  0.0 mm
09:42 55.8 °F /  13.2 °C 48.9 °F /  9.4 °C 30.3 in /  1027.0 hPa North 3.5 mph /  5.6 km/h 3.5 mph /  5.6 km/h 78 % 0 in /  0.0 mm
09:47 55.4 °F /  13.0 °C 48.4 °F /  9.1 °C 30.3 in /  1027.0 hPa North 3.5 mph /  5.6 km/h 3.5 mph /  5.6 km/h 77 % 0 in /  0.0 mm
09:48 55.4 °F /  13.0 °C 48.4 °F /  9.1 °C 30.3 in /  1027.0 hPa North 3.5 mph /  5.6 km/h 3.5 mph /  5.6 km/h 77 % 0 in /  0.0 mm
09:52 55.2 °F /  12.9 °C 48.2 °F /  9.0 °C 30.3 in /  1027.0 hPa North 2.3 mph /  3.7 km/h 2.3 mph /  3.7 km/h 77 % 0 in /  0.0 mm
09:55 55.4 °F /  13.0 °C 48.4 °F /  9.1 °C 30.3 in /  1027.0 hPa North 2.3 mph /  3.7 km/h 2.3 mph /  3.7 km/h 77 % 0 in /  0.0 mm
09:59 55.6 °F /  13.1 °C 48.4 °F /  9.1 °C 30.3 in /  1027.3 hPa North 2.3 mph /  3.7 km/h 2.3 mph /  3.7 km/h 77 % 0 in /  0.0 mm
10:01 55.8 °F /  13.2 °C 48.6 °F /  9.2 °C 30.3 in /  1027.3 hPa North 2.3 mph /  3.7 km/h 2.3 mph /  3.7 km/h 77 % 0 in /  0.0 mm
10:06 55.9 °F /  13.3 °C 48.4 °F /  9.1 °C 30.3 in /  1027.3 hPa Calm     76 % 0 in /  0.0 mm
10:11 56.3 °F /  13.5 °C 48.7 °F /  9.3 °C 30.3 in /  1027.3 hPa Calm     76 % 0 in /  0.0 mm
10:16 56.8 °F /  13.8 °C 49.5 °F /  9.7 °C 30.3 in /  1027.3 hPa Calm     76 % 0 in /  0.0 mm
10:20 57.4 °F /  14.1 °C 49.6 °F /  9.8 °C 30.3 in /  1027.3 hPa Calm     75 % 0 in /  0.0 mm
10:21 57.7 °F /  14.3 °C 49.8 °F /  9.9 °C 30.3 in /  1027.3 hPa Calm     75 % 0 in /  0.0 mm
10:25 58.3 °F /  14.6 °C 50 °F /  10.0 °C 30.3 in /  1027.3 hPa Calm     74 % 0 in /  0.0 mm
10:30 58.5 °F /  14.7 °C 50.4 °F /  10.2 °C 30.3 in /  1027.3 hPa Calm   1 mph /  1.6 km/h 74 % 0 in /  0.0 mm
10:31 58.8 °F /  14.9 °C 50.9 °F /  10.5 °C 30.3 in /  1027.3 hPa North 1.2 mph /  1.9 km/h 1.2 mph /  1.9 km/h 75 % 0 in /  0.0 mm
10:36 59.2 °F /  15.1 °C 51.3 °F /  10.7 °C 30.3 in /  1027.3 hPa North 2.3 mph /  3.7 km/h 2.3 mph /  3.7 km/h 75 % 0 in /  0.0 mm
10:37 59.2 °F /  15.1 °C 51.3 °F /  10.7 °C 30.3 in /  1027.3 hPa North 1.2 mph /  1.9 km/h 1.2 mph /  1.9 km/h 75 % 0 in /  0.0 mm
10:42 59.4 °F /  15.2 °C 51.4 °F /  10.8 °C 30.3 in /  1027.3 hPa North 2.3 mph /  3.7 km/h 2.3 mph /  3.7 km/h 75 % 0 in /  0.0 mm
10:43 59.4 °F /  15.2 °C 51.8 °F /  11.0 °C 30.3 in /  1027.3 hPa North 2.3 mph /  3.7 km/h 2.3 mph /  3.7 km/h 76 % 0 in /  0.0 mm
10:48 59.2 °F /  15.1 °C 51.4 °F /  10.8 °C 30.3 in /  1027.3 hPa North 3.5 mph /  5.6 km/h 3.5 mph /  5.6 km/h 76 % 0 in /  0.0 mm
10:50 59.2 °F /  15.1 °C 52 °F /  11.1 °C 30.3 in /  1027.3 hPa North 3.5 mph /  5.6 km/h 3.5 mph /  5.6 km/h 77 % 0 in /  0.0 mm
10:51 59.2 °F /  15.1 °C 52 °F /  11.1 °C 30.3 in /  1027.3 hPa North 3.5 mph /  5.6 km/h 3.5 mph /  5.6 km/h 77 % 0 in /  0.0 mm
10:57 58.8 °F /  14.9 °C 52.2 °F /  11.2 °C 30.4 in /  1027.7 hPa North 3.5 mph /  5.6 km/h 3.5 mph /  5.6 km/h 78 % 0 in /  0.0 mm
11:00 58.8 °F /  14.9 °C 52.3 °F /  11.3 °C 30.4 in /  1027.7 hPa NNE 3.5 mph /  5.6 km/h 3.5 mph /  5.6 km/h 79 % 0 in /  0.0 mm
11:05 58.6 °F /  14.8 °C 52.3 °F /  11.3 °C 30.4 in /  1027.7 hPa ENE 3.5 mph /  5.6 km/h 3.6 mph /  5.8 km/h 80 % 0 in /  0.0 mm
11:10 58.5 °F /  14.7 °C 52.5 °F /  11.4 °C 30.4 in /  1027.7 hPa East 6 mph /  9.7 km/h 6 mph /  9.7 km/h 81 % 0 in /  0.0 mm
11:12 58.3 °F /  14.6 °C 52.5 °F /  11.4 °C 30.4 in /  1027.7 hPa East 5.8 mph /  9.3 km/h 5.8 mph /  9.3 km/h 81 % 0 in /  0.0 mm
11:17 58.5 °F /  14.7 °C 52.9 °F /  11.6 °C 30.4 in /  1027.7 hPa East 7 mph /  11.3 km/h 7 mph /  11.3 km/h 82 % 0 in /  0.0 mm
11:18 58.5 °F /  14.7 °C 52.9 °F /  11.6 °C 30.4 in /  1027.7 hPa East 6.9 mph /  11.1 km/h 6.9 mph /  11.1 km/h 82 % 0 in /  0.0 mm
11:23 58.5 °F /  14.7 °C 53.2 °F /  11.8 °C 30.4 in /  1027.7 hPa East 5.8 mph /  9.3 km/h 5.8 mph /  9.3 km/h 83 % 0 in /  0.0 mm
11:28 58.3 °F /  14.6 °C 52.9 °F /  11.6 °C 30.4 in /  1027.7 hPa East 4.6 mph /  7.4 km/h 4.6 mph /  7.4 km/h 82 % 0 in /  0.0 mm
11:29 58.3 °F /  14.6 °C 52.9 °F /  11.6 °C 30.4 in /  1027.7 hPa East 4.6 mph /  7.4 km/h 4.6 mph /  7.4 km/h 82 % 0 in /  0.0 mm
11:32 58.3 °F /  14.6 °C 52.9 °F /  11.6 °C 30.4 in /  1027.7 hPa East 3.5 mph /  5.6 km/h 3.5 mph /  5.6 km/h 82 % 0 in /  0.0 mm
11:34 58.5 °F /  14.7 °C 52.9 °F /  11.6 °C 30.4 in /  1027.7 hPa East 4.6 mph /  7.4 km/h 4.6 mph /  7.4 km/h 82 % 0 in /  0.0 mm
11:39 58.6 °F /  14.8 °C 53.1 °F /  11.7 °C 30.4 in /  1027.7 hPa East 4.6 mph /  7.4 km/h 4.6 mph /  7.4 km/h 82 % 0 in /  0.0 mm
11:41 58.6 °F /  14.8 °C 53.2 °F /  11.8 °C 30.3 in /  1027.3 hPa East 5 mph /  8.0 km/h 5 mph /  8.0 km/h 82 % 0 in /  0.0 mm
11:44 58.8 °F /  14.9 °C 53.4 °F /  11.9 °C 30.3 in /  1027.3 hPa East 3.5 mph /  5.6 km/h 3.5 mph /  5.6 km/h 82 % 0 in /  0.0 mm
11:46 59.2 °F /  15.1 °C 53.6 °F /  12.0 °C 30.3 in /  1027.3 hPa East 4.6 mph /  7.4 km/h 4.6 mph /  7.4 km/h 82 % 0 in /  0.0 mm
11:47 59.2 °F /  15.1 °C 53.6 °F /  12.0 °C 30.3 in /  1027.3 hPa East 3.5 mph /  5.6 km/h 3.5 mph /  5.6 km/h 82 % 0 in /  0.0 mm
11:51 59.2 °F /  15.1 °C 53.2 °F /  11.8 °C 30.3 in /  1027.3 hPa East 2.3 mph /  3.7 km/h 2.3 mph /  3.7 km/h 81 % 0 in /  0.0 mm
11:52 59 °F /  15.0 °C 53.2 °F /  11.8 °C 30.3 in /  1027.3 hPa East 2.3 mph /  3.7 km/h 2.3 mph /  3.7 km/h 81 % 0 in /  0.0 mm
11:57 59.2 °F /  15.1 °C 53.2 °F /  11.8 °C 30.3 in /  1027.3 hPa East 2.3 mph /  3.7 km/h 2.3 mph /  3.7 km/h 81 % 0 in /  0.0 mm
11:58 59.2 °F /  15.1 °C 53.2 °F /  11.8 °C 30.3 in /  1027.3 hPa East 3.5 mph /  5.6 km/h 3.5 mph /  5.6 km/h 81 % 0 in /  0.0 mm
12:03 58.8 °F /  14.9 °C 53.1 °F /  11.7 °C 30.3 in /  1027.0 hPa East 3.5 mph /  5.6 km/h 3.5 mph /  5.6 km/h 81 % 0 in /  0.0 mm
12:06 58.8 °F /  14.9 °C 53.1 °F /  11.7 °C 30.3 in /  1027.0 hPa East 3.5 mph /  5.6 km/h 3.5 mph /  5.6 km/h 81 % 0 in /  0.0 mm
12:11 58.8 °F /  14.9 °C 53.1 °F /  11.7 °C 30.3 in /  1027.0 hPa East 3.5 mph /  5.6 km/h 3.5 mph /  5.6 km/h 81 % 0 in /  0.0 mm
12:12 58.8 °F /  14.9 °C 53.1 °F /  11.7 °C 30.3 in /  1027.0 hPa East 4.6 mph /  7.4 km/h 4.6 mph /  7.4 km/h 81 % 0 in /  0.0 mm
12:18 58.8 °F /  14.9 °C 53.1 °F /  11.7 °C 30.3 in /  1027.0 hPa East 3.5 mph /  5.6 km/h 3.5 mph /  5.6 km/h 81 % 0 in /  0.0 mm
12:19 58.8 °F /  14.9 °C 53.4 °F /  11.9 °C 30.3 in /  1027.0 hPa East 2.3 mph /  3.7 km/h 2.3 mph /  3.7 km/h 82 % 0 in /  0.0 mm
12:24 59 °F /  15.0 °C 53.4 °F /  11.9 °C 30.3 in /  1027.0 hPa East 3.5 mph /  5.6 km/h 3.5 mph /  5.6 km/h 82 % 0 in /  0.0 mm
12:29 59 °F /  15.0 °C 53.4 °F /  11.9 °C 30.3 in /  1026.6 hPa East 2.3 mph /  3.7 km/h 2.3 mph /  3.7 km/h 82 % 0 in /  0.0 mm
12:30 59 °F /  15.0 °C 53.4 °F /  11.9 °C 30.3 in /  1026.6 hPa East 1 mph /  1.6 km/h 3 mph /  4.8 km/h 82 % 0 in /  0.0 mm
12:35 59.2 °F /  15.1 °C 53.8 °F /  12.1 °C 30.3 in /  1026.6 hPa East 2 mph /  3.2 km/h 3 mph /  4.8 km/h 82 % 0 in /  0.0 mm
12:37 59.4 °F /  15.2 °C 53.8 °F /  12.1 °C 30.3 in /  1026.6 hPa East 3.5 mph /  5.6 km/h 3.5 mph /  5.6 km/h 82 % 0 in /  0.0 mm
12:42 59.4 °F /  15.2 °C 54 °F /  12.2 °C 30.3 in /  1026.3 hPa East 3.5 mph /  5.6 km/h 3.5 mph /  5.6 km/h 82 % 0 in /  0.0 mm
12:44 59.4 °F /  15.2 °C 53.8 °F /  12.1 °C 30.3 in /  1026.3 hPa East 4.6 mph /  7.4 km/h 4.6 mph /  7.4 km/h 82 % 0 in /  0.0 mm
12:47 59.2 °F /  15.1 °C 53.4 °F /  11.9 °C 30.3 in /  1026.3 hPa East 3.5 mph /  5.6 km/h 3.5 mph /  5.6 km/h 81 % 0 in /  0.0 mm
12:51 59.2 °F /  15.1 °C 53.2 °F /  11.8 °C 30.3 in /  1026.3 hPa East 3.5 mph /  5.6 km/h 3.5 mph /  5.6 km/h 81 % 0 in /  0.0 mm
12:53 59.2 °F /  15.1 °C 53.2 °F /  11.8 °C 30.3 in /  1026.3 hPa East 5 mph /  8.0 km/h 5 mph /  8.0 km/h 81 % 0 in /  0.0 mm
12:57 59.2 °F /  15.1 °C 53.2 °F /  11.8 °C 30.3 in /  1026.0 hPa ENE 4 mph /  6.4 km/h 4 mph /  6.4 km/h 81 % 0 in /  0.0 mm
12:58 59.2 °F /  15.1 °C 53.2 °F /  11.8 °C 30.3 in /  1026.0 hPa ENE 3.5 mph /  5.6 km/h 3.5 mph /  5.6 km/h 81 % 0 in /  0.0 mm
13:03 59.2 °F /  15.1 °C 53.2 °F /  11.8 °C 30.3 in /  1026.0 hPa ENE 3.5 mph /  5.6 km/h 3.5 mph /  5.6 km/h 81 % 0 in /  0.0 mm
13:08 59.4 °F /  15.2 °C 53.8 °F /  12.1 °C 30.3 in /  1025.6 hPa ENE 2.3 mph /  3.7 km/h 2.3 mph /  3.7 km/h 82 % 0 in /  0.0 mm
13:10 59.4 °F /  15.2 °C 53.6 °F /  12.0 °C 30.3 in /  1025.6 hPa ENE 2.3 mph /  3.7 km/h 2.3 mph /  3.7 km/h 81 % 0 in /  0.0 mm
13:15 59.4 °F /  15.2 °C 53.4 °F /  11.9 °C 30.3 in /  1025.6 hPa ENE 3.5 mph /  5.6 km/h 3.5 mph /  5.6 km/h 81 % 0 in /  0.0 mm
13:20 59.4 °F /  15.2 °C 54 °F /  12.2 °C 30.3 in /  1025.6 hPa ENE 3.5 mph /  5.6 km/h 3.5 mph /  5.6 km/h 82 % 0 in /  0.0 mm
13:21 59.4 °F /  15.2 °C 54 °F /  12.2 °C 30.3 in /  1025.6 hPa ENE 3.5 mph /  5.6 km/h 3.5 mph /  5.6 km/h 82 % 0 in /  0.0 mm
13:22 59.4 °F /  15.2 °C 54 °F /  12.2 °C 30.3 in /  1025.6 hPa ENE 3.5 mph /  5.6 km/h 3.5 mph /  5.6 km/h 82 % 0 in /  0.0 mm
13:27 59.5 °F /  15.3 °C 54 °F /  12.2 °C 30.3 in /  1025.3 hPa ENE 3.5 mph /  5.6 km/h 3.5 mph /  5.6 km/h 82 % 0 in /  0.0 mm
13:28 59.5 °F /  15.3 °C 54 °F /  12.2 °C 30.3 in /  1025.3 hPa ENE 3.5 mph /  5.6 km/h 3.5 mph /  5.6 km/h 82 % 0 in /  0.0 mm
13:33 59.5 °F /  15.3 °C 54 °F /  12.2 °C 30.3 in /  1025.3 hPa ENE 3.5 mph /  5.6 km/h 3.5 mph /  5.6 km/h 82 % 0 in /  0.0 mm
13:35 59.5 °F /  15.3 °C 54.1 °F /  12.3 °C 30.3 in /  1025.3 hPa ENE 3.5 mph /  5.6 km/h 3.5 mph /  5.6 km/h 82 % 0 in /  0.0 mm
13:36 59.5 °F /  15.3 °C 54.1 °F /  12.3 °C 30.3 in /  1025.3 hPa ENE 3.5 mph /  5.6 km/h 3.5 mph /  5.6 km/h 82 % 0 in /  0.0 mm
13:41 59.5 °F /  15.3 °C 54.3 °F /  12.4 °C 30.3 in /  1024.9 hPa ENE 3.5 mph /  5.6 km/h 3.5 mph /  5.6 km/h 83 % 0 in /  0.0 mm
13:45 59.7 °F /  15.4 °C 54.5 °F /  12.5 °C 30.3 in /  1024.9 hPa ENE 3.5 mph /  5.6 km/h 3.5 mph /  5.6 km/h 83 % 0 in /  0.0 mm
13:47 59.7 °F /  15.4 °C 54.7 °F /  12.6 °C 30.3 in /  1024.9 hPa ENE 3.5 mph /  5.6 km/h 3.5 mph /  5.6 km/h 83 % 0 in /  0.0 mm
13:50 59.9 °F /  15.5 °C 54.7 °F /  12.6 °C 30.3 in /  1024.9 hPa ENE 2.3 mph /  3.7 km/h 2.3 mph /  3.7 km/h 83 % 0 in /  0.0 mm
13:51 59.9 °F /  15.5 °C 54.7 °F /  12.6 °C 30.3 in /  1024.9 hPa ENE 2.3 mph /  3.7 km/h 2.3 mph /  3.7 km/h 83 % 0 in /  0.0 mm
13:53 59.9 °F /  15.5 °C 54.7 °F /  12.6 °C 30.3 in /  1024.9 hPa ENE 2.3 mph /  3.7 km/h 2.3 mph /  3.7 km/h 83 % 0 in /  0.0 mm
13:58 60.3 °F /  15.7 °C 55 °F /  12.8 °C 30.3 in /  1024.9 hPa ENE 1.2 mph /  1.9 km/h   83 % 0 in /  0.0 mm
13:59 60.3 °F /  15.7 °C 55 °F /  12.8 °C 30.3 in /  1024.9 hPa ENE 1 mph /  1.6 km/h 1 mph /  1.6 km/h 83 % 0 in /  0.0 mm
14:04 60.3 °F /  15.7 °C 55 °F /  12.8 °C 30.3 in /  1024.9 hPa ENE 3.5 mph /  5.6 km/h 3.5 mph /  5.6 km/h 83 % 0 in /  0.0 mm
14:09 60.1 °F /  15.6 °C 54.9 °F /  12.7 °C 30.3 in /  1024.6 hPa ENE 3.5 mph /  5.6 km/h 3.5 mph /  5.6 km/h 83 % 0 in /  0.0 mm
14:10 60.1 °F /  15.6 °C 54.9 °F /  12.7 °C 30.3 in /  1024.6 hPa ENE 3.5 mph /  5.6 km/h 3.5 mph /  5.6 km/h 83 % 0 in /  0.0 mm
14:12 60.1 °F /  15.6 °C 54.9 °F /  12.7 °C 30.3 in /  1024.6 hPa ENE 2.3 mph /  3.7 km/h 2.3 mph /  3.7 km/h 83 % 0 in /  0.0 mm
14:17 60.1 °F /  15.6 °C 54.7 °F /  12.6 °C 30.3 in /  1024.6 hPa ENE 3.5 mph /  5.6 km/h 3.5 mph /  5.6 km/h 82 % 0 in /  0.0 mm
14:22 60.3 °F /  15.7 °C 54.7 °F /  12.6 °C 30.3 in /  1024.6 hPa ENE 3.5 mph /  5.6 km/h 3.5 mph /  5.6 km/h 82 % 0 in /  0.0 mm
14:27 60.3 °F /  15.7 °C 54.3 °F /  12.4 °C 30.3 in /  1024.3 hPa ENE 3.5 mph /  5.6 km/h 3.5 mph /  5.6 km/h 81 % 0 in /  0.0 mm
14:28 60.3 °F /  15.7 °C 54.3 °F /  12.4 °C 30.3 in /  1024.3 hPa ENE 3.5 mph /  5.6 km/h 3.5 mph /  5.6 km/h 81 % 0 in /  0.0 mm
14:30 60.3 °F /  15.7 °C 54.3 °F /  12.4 °C 30.3 in /  1024.3 hPa ENE 3.5 mph /  5.6 km/h 3.5 mph /  5.6 km/h 81 % 0 in /  0.0 mm
14:35 60.3 °F /  15.7 °C 54.9 °F /  12.7 °C 30.3 in /  1024.3 hPa ENE 3.5 mph /  5.6 km/h 3.5 mph /  5.6 km/h 82 % 0 in /  0.0 mm
14:40 60.4 °F /  15.8 °C 54.9 °F /  12.7 °C 30.3 in /  1024.3 hPa ENE 3.5 mph /  5.6 km/h 3.5 mph /  5.6 km/h 82 % 0 in /  0.0 mm
14:41 60.3 °F /  15.7 °C 54.9 °F /  12.7 °C 30.3 in /  1024.3 hPa ENE 3.5 mph /  5.6 km/h 3.5 mph /  5.6 km/h 82 % 0 in /  0.0 mm
14:46 60.3 °F /  15.7 °C 54.9 °F /  12.7 °C 30.3 in /  1024.3 hPa ENE 3.5 mph /  5.6 km/h 3.5 mph /  5.6 km/h 82 % 0 in /  0.0 mm
14:47 60.3 °F /  15.7 °C 54.9 °F /  12.7 °C 30.3 in /  1024.3 hPa ENE 3.5 mph /  5.6 km/h 3.5 mph /  5.6 km/h 82 % 0 in /  0.0 mm
14:52 60.4 °F /  15.8 °C 54.9 °F /  12.7 °C 30.3 in /  1024.3 hPa ENE 3.5 mph /  5.6 km/h 3.5 mph /  5.6 km/h 82 % 0 in /  0.0 mm
14:54 60.4 °F /  15.8 °C 55.2 °F /  12.9 °C 30.3 in /  1024.3 hPa ENE 3.5 mph /  5.6 km/h 3.5 mph /  5.6 km/h 83 % 0 in /  0.0 mm
14:58 60.3 °F /  15.7 °C 54.9 °F /  12.7 °C 30.2 in /  1023.9 hPa ENE 3.5 mph /  5.6 km/h 3.5 mph /  5.6 km/h 82 % 0 in /  0.0 mm
15:03 60.6 °F /  15.9 °C 55.4 °F /  13.0 °C 30.2 in /  1023.9 hPa ENE 2.3 mph /  3.7 km/h 2.3 mph /  3.7 km/h 83 % 0 in /  0.0 mm
15:04 60.6 °F /  15.9 °C 55.6 °F /  13.1 °C 30.2 in /  1023.9 hPa ENE 2.3 mph /  3.7 km/h 2.3 mph /  3.7 km/h 83 % 0 in /  0.0 mm
15:09 60.6 °F /  15.9 °C 55 °F /  12.8 °C 30.2 in /  1023.9 hPa ENE 3.5 mph /  5.6 km/h 3.5 mph /  5.6 km/h 82 % 0 in /  0.0 mm
15:14 60.6 °F /  15.9 °C 55.2 °F /  12.9 °C 30.2 in /  1023.9 hPa ENE 3 mph /  4.8 km/h 3 mph /  4.8 km/h 82 % 0 in /  0.0 mm
15:15 60.6 °F /  15.9 °C 55.2 °F /  12.9 °C 30.2 in /  1023.9 hPa ENE 3.5 mph /  5.6 km/h 3.5 mph /  5.6 km/h 82 % 0 in /  0.0 mm
15:20 60.6 °F /  15.9 °C 55.2 °F /  12.9 °C 30.2 in /  1023.6 hPa ENE 2.3 mph /  3.7 km/h 2.3 mph /  3.7 km/h 82 % 0 in /  0.0 mm
15:24 61 °F /  16.1 °C 55.6 °F /  13.1 °C 30.2 in /  1023.6 hPa Calm     82 % 0 in /  0.0 mm
15:28 61.2 °F /  16.2 °C 54.9 °F /  12.7 °C 30.2 in /  1023.6 hPa Calm     80 % 0 in /  0.0 mm
15:30 61.2 °F /  16.2 °C 54.5 °F /  12.5 °C 30.2 in /  1023.6 hPa Calm     79 % 0 in /  0.0 mm
15:35 61.3 °F /  16.3 °C 54.7 °F /  12.6 °C 30.2 in /  1023.6 hPa ENE 3.5 mph /  5.6 km/h 3.5 mph /  5.6 km/h 79 % 0 in /  0.0 mm
15:40 61.3 °F /  16.3 °C 54.7 °F /  12.6 °C 30.2 in /  1023.6 hPa ENE 3.5 mph /  5.6 km/h 3.5 mph /  5.6 km/h 79 % 0 in /  0.0 mm
15:45 61.2 °F /  16.2 °C 54.9 °F /  12.7 °C 30.2 in /  1023.6 hPa ENE 3.5 mph /  5.6 km/h 3.5 mph /  5.6 km/h 80 % 0 in /  0.0 mm
15:46 61.2 °F /  16.2 °C 54.9 °F /  12.7 °C 30.2 in /  1023.6 hPa ENE 4 mph /  6.4 km/h 4 mph /  6.4 km/h 80 % 0 in /  0.0 mm
15:48 61 °F /  16.1 °C 54.9 °F /  12.7 °C 30.2 in /  1023.2 hPa ENE 3.5 mph /  5.6 km/h 3.6 mph /  5.8 km/h 80 % 0 in /  0.0 mm
15:51 61 °F /  16.1 °C 55 °F /  12.8 °C 30.2 in /  1023.6 hPa ENE 3.5 mph /  5.6 km/h 3.5 mph /  5.6 km/h 81 % 0 in /  0.0 mm
15:56 60.6 °F /  15.9 °C 54.9 °F /  12.7 °C 30.2 in /  1023.6 hPa ENE 4.6 mph /  7.4 km/h 4.6 mph /  7.4 km/h 81 % 0 in /  0.0 mm
15:58 60.6 °F /  15.9 °C 54.9 °F /  12.7 °C 30.2 in /  1023.2 hPa ENE 4.6 mph /  7.4 km/h 4.6 mph /  7.4 km/h 81 % 0 in /  0.0 mm
16:03 60.6 °F /  15.9 °C 55 °F /  12.8 °C 30.2 in /  1023.2 hPa ENE 3.5 mph /  5.6 km/h 3.5 mph /  5.6 km/h 82 % 0 in /  0.0 mm
16:10 60.6 °F /  15.9 °C 55 °F /  12.8 °C 30.2 in /  1023.2 hPa ENE 4.6 mph /  7.4 km/h 4.6 mph /  7.4 km/h 82 % 0 in /  0.0 mm
16:15 60.6 °F /  15.9 °C 55.6 °F /  13.1 °C 30.2 in /  1023.2 hPa ENE 4.6 mph /  7.4 km/h 4.6 mph /  7.4 km/h 83 % 0 in /  0.0 mm
16:16 60.6 °F /  15.9 °C 55.4 °F /  13.0 °C 30.2 in /  1023.2 hPa ENE 5 mph /  8.0 km/h 5 mph /  8.0 km/h 83 % 0 in /  0.0 mm
16:21 60.6 °F /  15.9 °C 55 °F /  12.8 °C 30.2 in /  1023.2 hPa ENE 5 mph /  8.0 km/h 5 mph /  8.0 km/h 82 % 0 in /  0.0 mm
16:22 60.6 °F /  15.9 °C 55 °F /  12.8 °C 30.2 in /  1023.2 hPa ENE 4.6 mph /  7.4 km/h 4.6 mph /  7.4 km/h 82 % 0 in /  0.0 mm
16:23 60.6 °F /  15.9 °C 55.2 °F /  12.9 °C 30.2 in /  1023.2 hPa ENE 5 mph /  8.0 km/h 5 mph /  8.0 km/h 82 % 0 in /  0.0 mm
16:27 60.8 °F /  16.0 °C 55.2 °F /  12.9 °C 30.2 in /  1023.2 hPa ENE 6.9 mph /  11.1 km/h 6.9 mph /  11.1 km/h 82 % 0 in /  0.0 mm
16:28 61 °F /  16.1 °C 55.8 °F /  13.2 °C 30.2 in /  1023.2 hPa ENE 6.9 mph /  11.1 km/h 6.9 mph /  11.1 km/h 83 % 0 in /  0.0 mm
16:29 61.2 °F /  16.2 °C 56.1 °F /  13.4 °C 30.2 in /  1023.2 hPa ENE 6.9 mph /  11.1 km/h 6.9 mph /  11.1 km/h 84 % 0 in /  0.0 mm
16:34 61.2 °F /  16.2 °C 56.7 °F /  13.7 °C 30.2 in /  1023.2 hPa ENE 6.9 mph /  11.1 km/h 6.9 mph /  11.1 km/h 85 % 0 in /  0.0 mm
16:36 61.2 °F /  16.2 °C 56.7 °F /  13.7 °C 30.2 in /  1023.2 hPa ENE 6.9 mph /  11.1 km/h 6.9 mph /  11.1 km/h 85 % 0 in /  0.0 mm
16:41 61 °F /  16.1 °C 56.7 °F /  13.7 °C 30.2 in /  1023.2 hPa ENE 4.6 mph /  7.4 km/h 4.6 mph /  7.4 km/h 86 % 0 in /  0.0 mm
16:42 60.8 °F /  16.0 °C 56.7 °F /  13.7 °C 30.2 in /  1023.2 hPa ENE 5 mph /  8.0 km/h 5 mph /  8.0 km/h 86 % 0 in /  0.0 mm
16:44 60.8 °F /  16.0 °C 56.7 °F /  13.7 °C 30.2 in /  1023.2 hPa ENE 5 mph /  8.0 km/h 5 mph /  8.0 km/h 86 % 0 in /  0.0 mm
16:47 60.6 °F /  15.9 °C 56.5 °F /  13.6 °C 30.2 in /  1023.2 hPa ENE 4.6 mph /  7.4 km/h 4.6 mph /  7.4 km/h 86 % 0 in /  0.0 mm
16:49 60.6 °F /  15.9 °C 56.5 °F /  13.6 °C 30.2 in /  1023.2 hPa ENE 3.5 mph /  5.6 km/h 3.5 mph /  5.6 km/h 86 % 0 in /  0.0 mm
16:50 60.6 °F /  15.9 °C 56.5 °F /  13.6 °C 30.2 in /  1023.2 hPa ENE 4.6 mph /  7.4 km/h 4.6 mph /  7.4 km/h 86 % 0 in /  0.0 mm
16:55 60.4 °F /  15.8 °C 56.3 °F /  13.5 °C 30.2 in /  1022.9 hPa ENE 7 mph /  11.3 km/h 7 mph /  11.3 km/h 86 % 0 in /  0.0 mm
17:01 60.6 °F /  15.9 °C 56.5 °F /  13.6 °C 30.2 in /  1023.2 hPa ENE 7 mph /  11.3 km/h 7 mph /  11.3 km/h 86 % 0 in /  0.0 mm
17:06 60.8 °F /  16.0 °C 56.8 °F /  13.8 °C 30.2 in /  1023.2 hPa ENE 9.2 mph /  14.8 km/h 9.2 mph /  14.8 km/h 87 % 0 in /  0.0 mm
17:11 60.8 °F /  16.0 °C 56.8 °F /  13.8 °C 30.2 in /  1023.2 hPa ENE 8.1 mph /  13.0 km/h 8.1 mph /  13.0 km/h 87 % 0 in /  0.0 mm
17:14 60.8 °F /  16.0 °C 56.8 °F /  13.8 °C 30.2 in /  1023.2 hPa ENE 8.1 mph /  13.0 km/h 8.1 mph /  13.0 km/h 87 % 0 in /  0.0 mm
17:19 60.8 °F /  16.0 °C 57.2 °F /  14.0 °C 30.2 in /  1023.2 hPa ENE 8.1 mph /  13.0 km/h 8.1 mph /  13.0 km/h 88 % 0 in /  0.0 mm
17:23 61 °F /  16.1 °C 57.4 °F /  14.1 °C 30.2 in /  1022.9 hPa ENE 10.4 mph /  16.7 km/h 10.4 mph /  16.7 km/h 88 % 0 in /  0.0 mm
17:24 61 °F /  16.1 °C 57.4 °F /  14.1 °C 30.2 in /  1022.9 hPa East 10.4 mph /  16.7 km/h 10.4 mph /  16.7 km/h 88 % 0 in /  0.0 mm
17:27 61 °F /  16.1 °C 57.4 °F /  14.1 °C 30.2 in /  1022.9 hPa ENE 9.2 mph /  14.8 km/h 9.2 mph /  14.8 km/h 88 % 0 in /  0.0 mm
17:30 61 °F /  16.1 °C 57 °F /  13.9 °C 30.2 in /  1022.9 hPa NE 9.2 mph /  14.8 km/h 9.2 mph /  14.8 km/h 87 % 0 in /  0.0 mm
17:35 61.2 °F /  16.2 °C 57.2 °F /  14.0 °C 30.2 in /  1022.9 hPa ENE 10.4 mph /  16.7 km/h 10.4 mph /  16.7 km/h 87 % 0 in /  0.0 mm
17:39 61.2 °F /  16.2 °C 57.2 °F /  14.0 °C 30.2 in /  1023.2 hPa ENE 9.2 mph /  14.8 km/h 9.2 mph /  14.8 km/h 87 % 0 in /  0.0 mm
17:40 61 °F /  16.1 °C 57 °F /  13.9 °C 30.2 in /  1023.2 hPa ENE 9.2 mph /  14.8 km/h 9.2 mph /  14.8 km/h 87 % 0 in /  0.0 mm
17:45 61.2 °F /  16.2 °C 57.4 °F /  14.1 °C 30.2 in /  1023.2 hPa ENE 8.1 mph /  13.0 km/h 8.1 mph /  13.0 km/h 87 % 0 in /  0.0 mm
17:46 61.2 °F /  16.2 °C 57.4 °F /  14.1 °C 30.2 in /  1023.2 hPa ENE 8.1 mph /  13.0 km/h 8.1 mph /  13.0 km/h 87 % 0 in /  0.0 mm
17:51 61.3 °F /  16.3 °C 57.4 °F /  14.1 °C 30.2 in /  1023.2 hPa ENE 5 mph /  8.0 km/h 5 mph /  8.0 km/h 87 % 0 in /  0.0 mm
17:53 61.3 °F /  16.3 °C 57 °F /  13.9 °C 30.2 in /  1023.2 hPa ENE 5 mph /  8.0 km/h 5 mph /  8.0 km/h 86 % 0 in /  0.0 mm
17:57 61.3 °F /  16.3 °C 57.2 °F /  14.0 °C 30.2 in /  1023.2 hPa NE 4.6 mph /  7.4 km/h 4.6 mph /  7.4 km/h 86 % 0 in /  0.0 mm
17:58 61.3 °F /  16.3 °C 57.2 °F /  14.0 °C 30.2 in /  1023.2 hPa NE 4.6 mph /  7.4 km/h 4.6 mph /  7.4 km/h 86 % 0 in /  0.0 mm
17:59 61.3 °F /  16.3 °C 57.2 °F /  14.0 °C 30.2 in /  1023.2 hPa NE 4 mph /  6.4 km/h 4 mph /  6.4 km/h 86 % 0 in /  0.0 mm
18:04 61.5 °F /  16.4 °C 57.4 °F /  14.1 °C 30.2 in /  1023.2 hPa NE 4.6 mph /  7.4 km/h 4.6 mph /  7.4 km/h 86 % 0 in /  0.0 mm
18:06 61.5 °F /  16.4 °C 56.8 °F /  13.8 °C 30.2 in /  1023.2 hPa NE 3.5 mph /  5.6 km/h 3.5 mph /  5.6 km/h 85 % 0 in /  0.0 mm
18:11 61.7 °F /  16.5 °C 57 °F /  13.9 °C 30.2 in /  1023.2 hPa NE 2.3 mph /  3.7 km/h 2.3 mph /  3.7 km/h 85 % 0 in /  0.0 mm
18:12 61.9 °F /  16.6 °C 57.2 °F /  14.0 °C 30.2 in /  1023.2 hPa NE 3.5 mph /  5.6 km/h 3.5 mph /  5.6 km/h 85 % 0 in /  0.0 mm
18:17 61.9 °F /  16.6 °C 56.7 °F /  13.7 °C 30.2 in /  1023.2 hPa NE 2.3 mph /  3.7 km/h 2.3 mph /  3.7 km/h 83 % 0 in /  0.0 mm
18:22 62.1 °F /  16.7 °C 56.5 °F /  13.6 °C 30.2 in /  1022.9 hPa Calm     82 % 0 in /  0.0 mm
18:27 62.2 °F /  16.8 °C 56.5 °F /  13.6 °C 30.2 in /  1023.2 hPa Calm     81 % 0 in /  0.0 mm
18:29 62.4 °F /  16.9 °C 56.5 °F /  13.6 °C 30.2 in /  1022.9 hPa Calm     81 % 0 in /  0.0 mm
18:31 62.4 °F /  16.9 °C 56.7 °F /  13.7 °C 30.2 in /  1023.2 hPa Calm     81 % 0 in /  0.0 mm
18:34 62.6 °F /  17.0 °C 56.3 °F /  13.5 °C 30.2 in /  1022.9 hPa NE 3.5 mph /  5.6 km/h 3.5 mph /  5.6 km/h 80 % 0 in /  0.0 mm
18:35 62.8 °F /  17.1 °C 56.5 °F /  13.6 °C 30.2 in /  1022.9 hPa NE 3.5 mph /  5.6 km/h 3.5 mph /  5.6 km/h 80 % 0 in /  0.0 mm
18:41 62.8 °F /  17.1 °C 56.1 °F /  13.4 °C 30.2 in /  1022.9 hPa NE 2.3 mph /  3.7 km/h 2.3 mph /  3.7 km/h 79 % 0 in /  0.0 mm
18:42 62.8 °F /  17.1 °C 56.1 °F /  13.4 °C 30.2 in /  1022.9 hPa NE 2.3 mph /  3.7 km/h 2.3 mph /  3.7 km/h 79 % 0 in /  0.0 mm
18:48 62.6 °F /  17.0 °C 55.9 °F /  13.3 °C 30.2 in /  1022.9 hPa NE 3.5 mph /  5.6 km/h 3.5 mph /  5.6 km/h 79 % 0 in /  0.0 mm
18:53 62.4 °F /  16.9 °C 55.8 °F /  13.2 °C 30.2 in /  1022.9 hPa Calm     79 % 0 in /  0.0 mm
18:58 62.4 °F /  16.9 °C 55.8 °F /  13.2 °C 30.2 in /  1022.9 hPa Calm     79 % 0 in /  0.0 mm
19:00 62.4 °F /  16.9 °C 55.8 °F /  13.2 °C 30.2 in /  1022.9 hPa Calm     79 % 0 in /  0.0 mm
19:05 62.1 °F /  16.7 °C 55.6 °F /  13.1 °C 30.2 in /  1023.2 hPa Calm     79 % 0 in /  0.0 mm
19:07 62.1 °F /  16.7 °C 55.4 °F /  13.0 °C 30.2 in /  1023.2 hPa Calm     79 % 0 in /  0.0 mm
19:12 62.1 °F /  16.7 °C 55.8 °F /  13.2 °C 30.2 in /  1023.2 hPa Calm     80 % 0 in /  0.0 mm
19:16 62.1 °F /  16.7 °C 55.9 °F /  13.3 °C 30.2 in /  1023.2 hPa Calm     80 % 0 in /  0.0 mm
19:21 62.1 °F /  16.7 °C 55.8 °F /  13.2 °C 30.2 in /  1023.2 hPa NE 3.5 mph /  5.6 km/h 3.5 mph /  5.6 km/h 80 % 0 in /  0.0 mm
19:23 62.1 °F /  16.7 °C 55.8 °F /  13.2 °C 30.2 in /  1023.2 hPa NE 3.5 mph /  5.6 km/h 3.5 mph /  5.6 km/h 80 % 0 in /  0.0 mm
19:28 61.7 °F /  16.5 °C 55.6 °F /  13.1 °C 30.2 in /  1023.2 hPa NE 3.5 mph /  5.6 km/h 3.5 mph /  5.6 km/h 80 % 0 in /  0.0 mm
19:29 61.5 °F /  16.4 °C 55.4 °F /  13.0 °C 30.2 in /  1023.2 hPa NE 3.5 mph /  5.6 km/h 3.5 mph /  5.6 km/h 80 % 0 in /  0.0 mm
19:34 61.5 °F /  16.4 °C 55.6 °F /  13.1 °C 30.2 in /  1023.2 hPa NE 2.3 mph /  3.7 km/h 2.3 mph /  3.7 km/h 81 % 0 in /  0.0 mm
19:37 61.3 °F /  16.3 °C 55.6 °F /  13.1 °C 30.2 in /  1023.2 hPa NE 2.3 mph /  3.7 km/h 2.3 mph /  3.7 km/h 81 % 0 in /  0.0 mm
19:39 61.3 °F /  16.3 °C 55.4 °F /  13.0 °C 30.2 in /  1023.2 hPa NE 3.5 mph /  5.6 km/h 3.5 mph /  5.6 km/h 81 % 0 in /  0.0 mm
19:42 61.2 °F /  16.2 °C 55.2 °F /  12.9 °C 30.2 in /  1023.2 hPa NE 2.3 mph /  3.7 km/h 2.3 mph /  3.7 km/h 81 % 0 in /  0.0 mm
19:45 61.2 °F /  16.2 °C 55.2 °F /  12.9 °C 30.2 in /  1023.2 hPa NNE 4 mph /  6.4 km/h 4 mph /  6.4 km/h 81 % 0 in /  0.0 mm
19:48 61 °F /  16.1 °C 55 °F /  12.8 °C 30.2 in /  1023.2 hPa NNE 3.5 mph /  5.6 km/h 3.5 mph /  5.6 km/h 81 % 0 in /  0.0 mm
19:53 60.6 °F /  15.9 °C 54.9 °F /  12.7 °C 30.2 in /  1023.2 hPa NNE 3.5 mph /  5.6 km/h 3.5 mph /  5.6 km/h 81 % 0 in /  0.0 mm
19:54 60.6 °F /  15.9 °C 54.7 °F /  12.6 °C 30.2 in /  1023.2 hPa Calm     81 % 0 in /  0.0 mm
19:59 60.4 °F /  15.8 °C 54.3 °F /  12.4 °C 30.2 in /  1023.2 hPa NNE 3.5 mph /  5.6 km/h 3.5 mph /  5.6 km/h 80 % 0 in /  0.0 mm
20:01 60.4 °F /  15.8 °C 54.1 °F /  12.3 °C 30.2 in /  1023.2 hPa NNE 3 mph /  4.8 km/h 3 mph /  4.8 km/h 80 % 0 in /  0.0 mm
20:06 60.1 °F /  15.6 °C 53.8 °F /  12.1 °C 30.2 in /  1023.2 hPa North 4 mph /  6.4 km/h 4 mph /  6.4 km/h 80 % 0 in /  0.0 mm
20:11 59.9 °F /  15.5 °C 54.1 °F /  12.3 °C 30.2 in /  1023.2 hPa North 1.2 mph /  1.9 km/h   81 % 0 in /  0.0 mm
20:13 60.1 °F /  15.6 °C 54.1 °F /  12.3 °C 30.2 in /  1023.2 hPa Calm     81 % 0 in /  0.0 mm
20:18 59.9 °F /  15.5 °C 54.1 °F /  12.3 °C 30.2 in /  1023.2 hPa North 3.5 mph /  5.6 km/h 3.5 mph /  5.6 km/h 81 % 0 in /  0.0 mm
20:19 59.7 °F /  15.4 °C 54 °F /  12.2 °C 30.2 in /  1023.2 hPa North 3.5 mph /  5.6 km/h 3.5 mph /  5.6 km/h 81 % 0 in /  0.0 mm
20:23 59.5 °F /  15.3 °C 53.8 °F /  12.1 °C 30.2 in /  1023.2 hPa North 4 mph /  6.4 km/h 4 mph /  6.4 km/h 81 % 0 in /  0.0 mm
20:24 59.5 °F /  15.3 °C 53.2 °F /  11.8 °C 30.2 in /  1023.2 hPa North 5 mph /  8.0 km/h 5 mph /  8.0 km/h 80 % 0 in /  0.0 mm
20:29 59 °F /  15.0 °C 53.2 °F /  11.8 °C 30.2 in /  1023.2 hPa NNW 4.6 mph /  7.4 km/h 4.6 mph /  7.4 km/h 81 % 0 in /  0.0 mm
20:32 58.8 °F /  14.9 °C 53.1 °F /  11.7 °C 30.2 in /  1023.2 hPa NNW 2.3 mph /  3.7 km/h 2.3 mph /  3.7 km/h 81 % 0 in /  0.0 mm
20:37 58.6 °F /  14.8 °C 52.9 °F /  11.6 °C 30.2 in /  1023.2 hPa NNW 2.3 mph /  3.7 km/h 2.3 mph /  3.7 km/h 81 % 0 in /  0.0 mm
20:38 58.6 °F /  14.8 °C 52.9 °F /  11.6 °C 30.2 in /  1023.2 hPa NNW 2.3 mph /  3.7 km/h 2.3 mph /  3.7 km/h 81 % 0 in /  0.0 mm
20:43 58.8 °F /  14.9 °C 53.2 °F /  11.8 °C 30.2 in /  1023.2 hPa Calm     82 % 0 in /  0.0 mm
20:44 58.8 °F /  14.9 °C 53.4 °F /  11.9 °C 30.2 in /  1023.2 hPa Calm     82 % 0 in /  0.0 mm
20:47 58.8 °F /  14.9 °C 53.4 °F /  11.9 °C 30.2 in /  1023.2 hPa NNW 3 mph /  4.8 km/h 3 mph /  4.8 km/h 82 % 0 in /  0.0 mm
20:51 58.8 °F /  14.9 °C 53.4 °F /  11.9 °C 30.2 in /  1023.2 hPa North 4 mph /  6.4 km/h 4 mph /  6.4 km/h 82 % 0 in /  0.0 mm
20:53 58.6 °F /  14.8 °C 53.2 °F /  11.8 °C 30.2 in /  1023.2 hPa North 3.5 mph /  5.6 km/h 3.5 mph /  5.6 km/h 82 % 0 in /  0.0 mm
20:58 58.6 °F /  14.8 °C 53.2 °F /  11.8 °C 30.2 in /  1023.2 hPa North 3.5 mph /  5.6 km/h 3.5 mph /  5.6 km/h 82 % 0 in /  0.0 mm
21:00 58.6 °F /  14.8 °C 53.4 °F /  11.9 °C 30.2 in /  1023.2 hPa North 3.5 mph /  5.6 km/h 3.5 mph /  5.6 km/h 83 % 0 in /  0.0 mm
21:05 58.6 °F /  14.8 °C 53.2 °F /  11.8 °C 30.2 in /  1023.2 hPa North 4 mph /  6.4 km/h 4 mph /  6.4 km/h 82 % 0 in /  0.0 mm
21:10 58.6 °F /  14.8 °C 53.2 °F /  11.8 °C 30.2 in /  1023.2 hPa North 3.5 mph /  5.6 km/h 3.5 mph /  5.6 km/h 82 % 0 in /  0.0 mm
21:11 58.6 °F /  14.8 °C 53.4 °F /  11.9 °C 30.2 in /  1023.2 hPa North 4 mph /  6.4 km/h 4 mph /  6.4 km/h 83 % 0 in /  0.0 mm
21:12 58.6 °F /  14.8 °C 53.1 °F /  11.7 °C 30.2 in /  1023.2 hPa North 6 mph /  9.7 km/h 6 mph /  9.7 km/h 82 % 0 in /  0.0 mm
21:16 58.6 °F /  14.8 °C 53.4 °F /  11.9 °C 30.2 in /  1023.2 hPa NNE 4.6 mph /  7.4 km/h 4.6 mph /  7.4 km/h 83 % 0 in /  0.0 mm
21:18 58.6 °F /  14.8 °C 53.4 °F /  11.9 °C 30.2 in /  1023.2 hPa NNE 3.5 mph /  5.6 km/h 3.5 mph /  5.6 km/h 83 % 0 in /  0.0 mm
21:23 58.6 °F /  14.8 °C 53.4 °F /  11.9 °C 30.2 in /  1023.2 hPa NNE 4.6 mph /  7.4 km/h 4.6 mph /  7.4 km/h 83 % 0 in /  0.0 mm
21:26 58.5 °F /  14.7 °C 52.9 °F /  11.6 °C 30.2 in /  1023.2 hPa North 5.8 mph /  9.3 km/h 5.8 mph /  9.3 km/h 82 % 0 in /  0.0 mm
21:31 58.5 °F /  14.7 °C 53.2 °F /  11.8 °C 30.2 in /  1023.2 hPa North 5 mph /  8.0 km/h 5 mph /  8.0 km/h 83 % 0 in /  0.0 mm
21:36 58.5 °F /  14.7 °C 53.4 °F /  11.9 °C 30.2 in /  1023.2 hPa North 3.5 mph /  5.6 km/h 3.5 mph /  5.6 km/h 83 % 0 in /  0.0 mm
21:38 58.5 °F /  14.7 °C 53.1 °F /  11.7 °C 30.2 in /  1023.2 hPa North 4 mph /  6.4 km/h 4 mph /  6.4 km/h 82 % 0 in /  0.0 mm
21:40 58.5 °F /  14.7 °C 53.1 °F /  11.7 °C 30.2 in /  1023.2 hPa North 3.5 mph /  5.6 km/h 3.5 mph /  5.6 km/h 82 % 0 in /  0.0 mm
21:44 58.5 °F /  14.7 °C 53.1 °F /  11.7 °C 30.2 in /  1023.2 hPa NNW 5.8 mph /  9.3 km/h 5.8 mph /  9.3 km/h 82 % 0 in /  0.0 mm
21:49 58.6 °F /  14.8 °C 52.3 °F /  11.3 °C 30.2 in /  1023.2 hPa North 4.6 mph /  7.4 km/h 4.6 mph /  7.4 km/h 80 % 0 in /  0.0 mm
21:54 58.6 °F /  14.8 °C 52.2 °F /  11.2 °C 30.2 in /  1023.2 hPa North 4 mph /  6.4 km/h 4 mph /  6.4 km/h 79 % 0 in /  0.0 mm
21:55 58.5 °F /  14.7 °C 52 °F /  11.1 °C 30.2 in /  1023.2 hPa North 3.5 mph /  5.6 km/h 3.5 mph /  5.6 km/h 79 % 0 in /  0.0 mm
22:01 58.6 °F /  14.8 °C 52 °F /  11.1 °C 30.2 in /  1023.2 hPa North 4.6 mph /  7.4 km/h 4.6 mph /  7.4 km/h 78 % 0 in /  0.0 mm
22:06 58.8 °F /  14.9 °C 51.6 °F /  10.9 °C 30.2 in /  1023.2 hPa North 4.6 mph /  7.4 km/h 4.6 mph /  7.4 km/h 77 % 0 in /  0.0 mm
22:09 59 °F /  15.0 °C 51.8 °F /  11.0 °C 30.2 in /  1023.2 hPa NNW 3.5 mph /  5.6 km/h 3.5 mph /  5.6 km/h 77 % 0 in /  0.0 mm
22:21 59.4 °F /  15.2 °C 51.4 °F /  10.8 °C 30.2 in /  1023.2 hPa NNW 3.5 mph /  5.6 km/h 3.5 mph /  5.6 km/h 75 % 0 in /  0.0 mm
22:28 59.4 °F /  15.2 °C 51.1 °F /  10.6 °C 30.2 in /  1023.2 hPa NNW 1.2 mph /  1.9 km/h 1.2 mph /  1.9 km/h 74 % 0 in /  0.0 mm
22:30 59.4 °F /  15.2 °C 51.1 °F /  10.6 °C 30.2 in /  1023.2 hPa NNW 1 mph /  1.6 km/h 3 mph /  4.8 km/h 74 % 0 in /  0.0 mm
22:31 59.4 °F /  15.2 °C 51.1 °F /  10.6 °C 30.2 in /  1023.2 hPa NNW 3.5 mph /  5.6 km/h 3.5 mph /  5.6 km/h 74 % 0 in /  0.0 mm
22:32 59.4 °F /  15.2 °C 51.1 °F /  10.6 °C 30.2 in /  1023.2 hPa NNW 3.5 mph /  5.6 km/h 3.5 mph /  5.6 km/h 74 % 0 in /  0.0 mm
22:34 59.4 °F /  15.2 °C 51.1 °F /  10.6 °C 30.2 in /  1023.2 hPa NNW 3.5 mph /  5.6 km/h 3.5 mph /  5.6 km/h 74 % 0 in /  0.0 mm
22:35 59.4 °F /  15.2 °C 51.1 °F /  10.6 °C 30.2 in /  1023.2 hPa NNW 3.5 mph /  5.6 km/h 3.5 mph /  5.6 km/h 74 % 0 in /  0.0 mm
22:36 59.5 °F /  15.3 °C 51.3 °F /  10.7 °C 30.2 in /  1023.2 hPa NNW 3.5 mph /  5.6 km/h 3.5 mph /  5.6 km/h 74 % 0 in /  0.0 mm
22:38 59.5 °F /  15.3 °C 51.3 °F /  10.7 °C 30.2 in /  1023.2 hPa NNW 3.5 mph /  5.6 km/h 3.5 mph /  5.6 km/h 74 % 0 in /  0.0 mm
22:42 59.5 °F /  15.3 °C 50.9 °F /  10.5 °C 30.2 in /  1023.2 hPa NW 3.5 mph /  5.6 km/h 3.5 mph /  5.6 km/h 73 % 0 in /  0.0 mm
22:43 59.5 °F /  15.3 °C 50.9 °F /  10.5 °C 30.2 in /  1023.2 hPa NW 3.5 mph /  5.6 km/h 3.5 mph /  5.6 km/h 73 % 0 in /  0.0 mm
22:44 59.5 °F /  15.3 °C 50.9 °F /  10.5 °C 30.2 in /  1023.2 hPa NW 4.6 mph /  7.4 km/h 4.6 mph /  7.4 km/h 73 % 0 in /  0.0 mm
22:47 59.7 °F /  15.4 °C 51.1 °F /  10.6 °C 30.2 in /  1023.2 hPa NW 4.6 mph /  7.4 km/h 4.6 mph /  7.4 km/h 73 % 0 in /  0.0 mm
22:48 59.7 °F /  15.4 °C 51.1 °F /  10.6 °C 30.2 in /  1022.9 hPa NW 4.6 mph /  7.4 km/h 4.6 mph /  7.4 km/h 73 % 0 in /  0.0 mm
22:49 59.7 °F /  15.4 °C 51.1 °F /  10.6 °C 30.2 in /  1022.9 hPa NW 4.6 mph /  7.4 km/h 4.6 mph /  7.4 km/h 73 % 0 in /  0.0 mm
22:50 59.7 °F /  15.4 °C 51.1 °F /  10.6 °C 30.2 in /  1022.9 hPa NW 5 mph /  8.0 km/h 5 mph /  8.0 km/h 73 % 0 in /  0.0 mm
22:52 59.7 °F /  15.4 °C 51.1 °F /  10.6 °C 30.2 in /  1022.9 hPa NW 5.8 mph /  9.3 km/h 5.8 mph /  9.3 km/h 73 % 0 in /  0.0 mm
22:53 59.5 °F /  15.3 °C 50.9 °F /  10.5 °C 30.2 in /  1022.9 hPa NW 3.5 mph /  5.6 km/h 3.5 mph /  5.6 km/h 73 % 0 in /  0.0 mm
22:57 59.4 °F /  15.2 °C 50.7 °F /  10.4 °C 30.2 in /  1022.9 hPa NW 3.5 mph /  5.6 km/h 3.5 mph /  5.6 km/h 73 % 0 in /  0.0 mm
23:01 58.6 °F /  14.8 °C 50.2 °F /  10.1 °C 30.2 in /  1022.9 hPa NW 3.5 mph /  5.6 km/h 3.5 mph /  5.6 km/h 73 % 0 in /  0.0 mm
23:07 58.1 °F /  14.5 °C 50.2 °F /  10.1 °C 30.2 in /  1022.9 hPa NNW 4.6 mph /  7.4 km/h 4.6 mph /  7.4 km/h 75 % 0 in /  0.0 mm
23:12 57.7 °F /  14.3 °C 50.2 °F /  10.1 °C 30.2 in /  1022.9 hPa NNW 5.8 mph /  9.3 km/h 5.8 mph /  9.3 km/h 76 % 0 in /  0.0 mm
23:17 57 °F /  13.9 °C 50 °F /  10.0 °C 30.2 in /  1022.9 hPa North 9.2 mph /  14.8 km/h 9.2 mph /  14.8 km/h 77 % 0 in /  0.0 mm
23:18 57 °F /  13.9 °C 50 °F /  10.0 °C 30.2 in /  1022.9 hPa North 9.2 mph /  14.8 km/h 9.2 mph /  14.8 km/h 77 % 0 in /  0.0 mm
23:23 56.8 °F /  13.8 °C 50 °F /  10.0 °C 30.2 in /  1022.9 hPa North 6.9 mph /  11.1 km/h 6.9 mph /  11.1 km/h 78 % 0 in /  0.0 mm
23:28 56.7 °F /  13.7 °C 49.8 °F /  9.9 °C 30.2 in /  1022.6 hPa North 5.8 mph /  9.3 km/h 5.8 mph /  9.3 km/h 78 % 0 in /  0.0 mm
23:33 56.7 °F /  13.7 °C 49.8 °F /  9.9 °C 30.2 in /  1022.9 hPa NNW 6 mph /  9.7 km/h 6 mph /  9.7 km/h 78 % 0 in /  0.0 mm
23:34 56.7 °F /  13.7 °C 49.8 °F /  9.9 °C 30.2 in /  1022.9 hPa NNW 4.6 mph /  7.4 km/h 4.6 mph /  7.4 km/h 78 % 0 in /  0.0 mm
23:39 56.7 °F /  13.7 °C 50.2 °F /  10.1 °C 30.2 in /  1022.9 hPa North 4.6 mph /  7.4 km/h 4.6 mph /  7.4 km/h 79 % 0 in /  0.0 mm
23:41 56.5 °F /  13.6 °C 50.2 °F /  10.1 °C 30.2 in /  1022.9 hPa North 5.8 mph /  9.3 km/h 5.8 mph /  9.3 km/h 79 % 0 in /  0.0 mm
23:46 56.5 °F /  13.6 °C 50 °F /  10.0 °C 30.2 in /  1022.9 hPa North 5.8 mph /  9.3 km/h 5.8 mph /  9.3 km/h 79 % 0 in /  0.0 mm
23:47 56.5 °F /  13.6 °C 50 °F /  10.0 °C 30.2 in /  1022.9 hPa North 5.8 mph /  9.3 km/h 5.8 mph /  9.3 km/h 79 % 0 in /  0.0 mm
23:52 56.3 °F /  13.5 °C 49.8 °F /  9.9 °C 30.2 in /  1022.6 hPa NNW 5 mph /  8.0 km/h 5 mph /  8.0 km/h 79 % 0 in /  0.0 mm
23:55 56.1 °F /  13.4 °C 49.8 °F /  9.9 °C 30.2 in /  1022.6 hPa North 3.5 mph /  5.6 km/h 3.5 mph /  5.6 km/h 79 % 0 in /  0.0 mm
Puerto Banus, Marbella
Elogios de Weather Underground - 2.5 mb

Guión original por  Jim McMurry - jmcmurry@mwt.net Adaptado para la plantilla por  Wim van der Kuil - Leuven-Template.eu

Usted encontrará nuestra información del tiempo también en:

Weather Underground

Iberian Peninsula Weather Network